﻿<?xml version="1.0" encoding="utf-8"?><gpx creator="Garmin Desktop App" version="1.1" xsi:schemaLocation="http://www.topografix.com/GPX/1/1 http://www.topografix.com/GPX/1/1/gpx.xsd http://www.garmin.com/xmlschemas/WaypointExtension/v1 http://www8.garmin.com/xmlschemas/WaypointExtensionv1.xsd http://www.garmin.com/xmlschemas/TrackPointExtension/v1 http://www.garmin.com/xmlschemas/TrackPointExtensionv1.xsd http://www.garmin.com/xmlschemas/GpxExtensions/v3 http://www8.garmin.com/xmlschemas/GpxExtensionsv3.xsd http://www.garmin.com/xmlschemas/ActivityExtension/v1 http://www8.garmin.com/xmlschemas/ActivityExtensionv1.xsd http://www.garmin.com/xmlschemas/AdventuresExtensions/v1 http://www8.garmin.com/xmlschemas/AdventuresExtensionv1.xsd http://www.garmin.com/xmlschemas/PressureExtension/v1 http://www.garmin.com/xmlschemas/PressureExtensionv1.xsd http://www.garmin.com/xmlschemas/TripExtensions/v1 http://www.garmin.com/xmlschemas/TripExtensionsv1.xsd http://www.garmin.com/xmlschemas/TripMetaDataExtensions/v1 http://www.garmin.com/xmlschemas/TripMetaDataExtensionsv1.xsd http://www.garmin.com/xmlschemas/ViaPointTransportationModeExtensions/v1 http://www.garmin.com/xmlschemas/ViaPointTransportationModeExtensionsv1.xsd http://www.garmin.com/xmlschemas/CreationTimeExtension/v1 http://www.garmin.com/xmlschemas/CreationTimeExtensionsv1.xsd http://www.garmin.com/xmlschemas/AccelerationExtension/v1 http://www.garmin.com/xmlschemas/AccelerationExtensionv1.xsd http://www.garmin.com/xmlschemas/PowerExtension/v1 http://www.garmin.com/xmlschemas/PowerExtensionv1.xsd http://www.garmin.com/xmlschemas/VideoExtension/v1 http://www.garmin.com/xmlschemas/VideoExtensionv1.xsd" xmlns="http://www.topografix.com/GPX/1/1" xmlns:xsi="http://www.w3.org/2001/XMLSchema-instance" xmlns:wptx1="http://www.garmin.com/xmlschemas/WaypointExtension/v1" xmlns:gpxtrx="http://www.garmin.com/xmlschemas/GpxExtensions/v3" xmlns:gpxtpx="http://www.garmin.com/xmlschemas/TrackPointExtension/v1" xmlns:gpxx="http://www.garmin.com/xmlschemas/GpxExtensions/v3" xmlns:trp="http://www.garmin.com/xmlschemas/TripExtensions/v1" xmlns:adv="http://www.garmin.com/xmlschemas/AdventuresExtensions/v1" xmlns:prs="http://www.garmin.com/xmlschemas/PressureExtension/v1" xmlns:tmd="http://www.garmin.com/xmlschemas/TripMetaDataExtensions/v1" xmlns:vptm="http://www.garmin.com/xmlschemas/ViaPointTransportationModeExtensions/v1" xmlns:ctx="http://www.garmin.com/xmlschemas/CreationTimeExtension/v1" xmlns:gpxacc="http://www.garmin.com/xmlschemas/AccelerationExtension/v1" xmlns:gpxpx="http://www.garmin.com/xmlschemas/PowerExtension/v1" xmlns:vidx1="http://www.garmin.com/xmlschemas/VideoExtension/v1">

  <metadata>
    <link href="http://www.garmin.com">
      <text>Garmin International</text>
    </link>
    <time>2026-06-01T15:07:33Z</time>
    <bounds maxlat="43.09613099321723" maxlon="-5.351500008255243" minlat="43.065265975892544" minlon="-5.41270399466157" />
  </metadata>

  <trk>
    <name>01.-Camino de Wamba - Collada Acebal - Entrepicos - Pico Valmartin - Pico Torres - La Raya</name>
    <extensions>
      <gpxx:TrackExtension>
        <gpxx:DisplayColor>Magenta</gpxx:DisplayColor>
      </gpxx:TrackExtension>
    </extensions>
    <trkseg>
      <trkpt lat="43.0671919696033" lon="-5.358681036159396">
        <ele>1438.1569999999999</ele>
        <time>2025-06-14T08:02:33Z</time>
      </trkpt>
      <trkpt lat="43.067219965159893" lon="-5.358937019482255">
        <ele>1433</ele>
        <time>2025-06-14T08:03:17Z</time>
      </trkpt>
      <trkpt lat="43.06723396293819" lon="-5.359185039997101">
        <ele>1435.3199999999999</ele>
        <time>2025-06-14T08:03:40Z</time>
      </trkpt>
      <trkpt lat="43.067180989310145" lon="-5.359423002228141">
        <ele>1436.809</ele>
        <time>2025-06-14T08:03:56Z</time>
      </trkpt>
      <trkpt lat="43.06708300486207" lon="-5.359642021358013">
        <ele>1435.1769999999999</ele>
        <time>2025-06-14T08:04:14Z</time>
      </trkpt>
      <trkpt lat="43.06695400737226" lon="-5.359824998304248">
        <ele>1434.146</ele>
        <time>2025-06-14T08:04:32Z</time>
      </trkpt>
      <trkpt lat="43.06680397130549" lon="-5.359978973865509">
        <ele>1434.0429999999999</ele>
        <time>2025-06-14T08:04:50Z</time>
      </trkpt>
      <trkpt lat="43.066655024886131" lon="-5.360126998275518">
        <ele>1434.175</ele>
        <time>2025-06-14T08:05:07Z</time>
      </trkpt>
      <trkpt lat="43.066512029618025" lon="-5.36030201241374">
        <ele>1436.1489999999999</ele>
        <time>2025-06-14T08:05:23Z</time>
      </trkpt>
      <trkpt lat="43.066727025434375" lon="-5.360294971615076">
        <ele>1445.1510000000001</ele>
        <time>2025-06-14T08:06:20Z</time>
      </trkpt>
      <trkpt lat="43.066879995167255" lon="-5.360149964690208">
        <ele>1445.164</ele>
        <time>2025-06-14T08:06:40Z</time>
      </trkpt>
      <trkpt lat="43.067046040669084" lon="-5.360052986070514">
        <ele>1447.1880000000001</ele>
        <time>2025-06-14T08:07:00Z</time>
      </trkpt>
      <trkpt lat="43.067217031493783" lon="-5.359972016885877">
        <ele>1448.124</ele>
        <time>2025-06-14T08:07:19Z</time>
      </trkpt>
      <trkpt lat="43.067397996783257" lon="-5.359990037977696">
        <ele>1448.126</ele>
        <time>2025-06-14T08:07:38Z</time>
      </trkpt>
      <trkpt lat="43.067563036456704" lon="-5.3601089771837">
        <ele>1449.1089999999999</ele>
        <time>2025-06-14T08:07:59Z</time>
      </trkpt>
      <trkpt lat="43.067720029503107" lon="-5.360243003815413">
        <ele>1449.1400000000001</ele>
        <time>2025-06-14T08:08:21Z</time>
      </trkpt>
      <trkpt lat="43.067880040034652" lon="-5.360364960506558">
        <ele>1449.4590000000001</ele>
        <time>2025-06-14T08:08:39Z</time>
      </trkpt>
      <trkpt lat="43.068039966747165" lon="-5.36049596965313">
        <ele>1451.1659999999999</ele>
        <time>2025-06-14T08:09:00Z</time>
      </trkpt>
      <trkpt lat="43.068198971450329" lon="-5.360619015991688">
        <ele>1453.1780000000001</ele>
        <time>2025-06-14T08:09:18Z</time>
      </trkpt>
      <trkpt lat="43.068342972546816" lon="-5.36077399738133">
        <ele>1453.8520000000001</ele>
        <time>2025-06-14T08:09:38Z</time>
      </trkpt>
      <trkpt lat="43.068513963371515" lon="-5.360879022628069">
        <ele>1456.029</ele>
        <time>2025-06-14T08:09:58Z</time>
      </trkpt>
      <trkpt lat="43.068663999438286" lon="-5.361038027331233">
        <ele>1459.0409999999999</ele>
        <time>2025-06-14T08:10:20Z</time>
      </trkpt>
      <trkpt lat="43.068798026069999" lon="-5.361214969307184">
        <ele>1461.0340000000001</ele>
        <time>2025-06-14T08:10:41Z</time>
      </trkpt>
      <trkpt lat="43.068959964439273" lon="-5.361343966796994">
        <ele>1465.067</ele>
        <time>2025-06-14T08:11:03Z</time>
      </trkpt>
      <trkpt lat="43.069117041304708" lon="-5.361476987600327">
        <ele>1466.827</ele>
        <time>2025-06-14T08:11:25Z</time>
      </trkpt>
      <trkpt lat="43.069287026301026" lon="-5.361578995361924">
        <ele>1469.1679999999999</ele>
        <time>2025-06-14T08:11:47Z</time>
      </trkpt>
      <trkpt lat="43.069452987983823" lon="-5.361692989245057">
        <ele>1472.8140000000001</ele>
        <time>2025-06-14T08:12:07Z</time>
      </trkpt>
      <trkpt lat="43.069610986858606" lon="-5.361812012270093">
        <ele>1474.1089999999999</ele>
        <time>2025-06-14T08:12:28Z</time>
      </trkpt>
      <trkpt lat="43.069758005440235" lon="-5.361960958689451">
        <ele>1475.134</ele>
        <time>2025-06-14T08:12:51Z</time>
      </trkpt>
      <trkpt lat="43.069916004315019" lon="-5.362084005028009">
        <ele>1476.383</ele>
        <time>2025-06-14T08:13:12Z</time>
      </trkpt>
      <trkpt lat="43.070271983742714" lon="-5.362199004739523">
        <ele>1481.8420000000001</ele>
        <time>2025-06-14T08:13:55Z</time>
      </trkpt>
      <trkpt lat="43.070462001487613" lon="-5.362211996689439">
        <ele>1483.1759999999999</ele>
        <time>2025-06-14T08:14:19Z</time>
      </trkpt>
      <trkpt lat="43.07082200422883" lon="-5.362133961170912">
        <ele>1488.095</ele>
        <time>2025-06-14T08:15:02Z</time>
      </trkpt>
      <trkpt lat="43.071004981175065" lon="-5.362112000584602">
        <ele>1490.1980000000001</ele>
        <time>2025-06-14T08:15:24Z</time>
      </trkpt>
      <trkpt lat="43.071190975606441" lon="-5.362086016684771">
        <ele>1493.1510000000001</ele>
        <time>2025-06-14T08:15:50Z</time>
      </trkpt>
      <trkpt lat="43.071371018886566" lon="-5.362104037776589">
        <ele>1495.143</ele>
        <time>2025-06-14T08:16:16Z</time>
      </trkpt>
      <trkpt lat="43.07155198417604" lon="-5.362093979492784">
        <ele>1498.0640000000001</ele>
        <time>2025-06-14T08:16:39Z</time>
      </trkpt>
      <trkpt lat="43.071734039112926" lon="-5.362088028341532">
        <ele>1500.1099999999999</ele>
        <time>2025-06-14T08:17:10Z</time>
      </trkpt>
      <trkpt lat="43.071906035766006" lon="-5.362164974212647">
        <ele>1502.1089999999999</ele>
        <time>2025-06-14T08:17:36Z</time>
      </trkpt>
      <trkpt lat="43.0720030143857" lon="-5.362377958372235">
        <ele>1503.1859999999999</ele>
        <time>2025-06-14T08:18:05Z</time>
      </trkpt>
      <trkpt lat="43.072160007432103" lon="-5.362513996660709">
        <ele>1503.145</ele>
        <time>2025-06-14T08:18:30Z</time>
      </trkpt>
      <trkpt lat="43.072310965508223" lon="-5.362670989707112">
        <ele>1504.0920000000001</ele>
        <time>2025-06-14T08:18:51Z</time>
      </trkpt>
      <trkpt lat="43.07241196744144" lon="-5.362877016887069">
        <ele>1509.8340000000001</ele>
        <time>2025-06-14T08:19:11Z</time>
      </trkpt>
      <trkpt lat="43.072505006566644" lon="-5.363090001046658">
        <ele>1513.028</ele>
        <time>2025-06-14T08:19:33Z</time>
      </trkpt>
      <trkpt lat="43.072608020156622" lon="-5.363294016569853">
        <ele>1515.145</ele>
        <time>2025-06-14T08:19:59Z</time>
      </trkpt>
      <trkpt lat="43.072738023474813" lon="-5.363476993516088">
        <ele>1519.1469999999999</ele>
        <time>2025-06-14T08:20:25Z</time>
      </trkpt>
      <trkpt lat="43.07290499098599" lon="-5.363600961863995">
        <ele>1522.1099999999999</ele>
        <time>2025-06-14T08:20:48Z</time>
      </trkpt>
      <trkpt lat="43.073071958497167" lon="-5.363719984889031">
        <ele>1526.0830000000001</ele>
        <time>2025-06-14T08:21:08Z</time>
      </trkpt>
      <trkpt lat="43.073230963200331" lon="-5.36384797655046">
        <ele>1529.124</ele>
        <time>2025-06-14T08:21:30Z</time>
      </trkpt>
      <trkpt lat="43.073393991217017" lon="-5.36397404037416">
        <ele>1531.104</ele>
        <time>2025-06-14T08:21:52Z</time>
      </trkpt>
      <trkpt lat="43.073563976213336" lon="-5.364076970145106">
        <ele>1534.114</ele>
        <time>2025-06-14T08:22:17Z</time>
      </trkpt>
      <trkpt lat="43.073750976473093" lon="-5.364073030650616">
        <ele>1536.1089999999999</ele>
        <time>2025-06-14T08:22:39Z</time>
      </trkpt>
      <trkpt lat="43.073926996439695" lon="-5.364009998738766">
        <ele>1539.0540000000001</ele>
        <time>2025-06-14T08:23:00Z</time>
      </trkpt>
      <trkpt lat="43.074098993092775" lon="-5.36393104121089">
        <ele>1541.193</ele>
        <time>2025-06-14T08:23:20Z</time>
      </trkpt>
      <trkpt lat="43.074273001402617" lon="-5.363853005692363">
        <ele>1544.1600000000001</ele>
        <time>2025-06-14T08:23:42Z</time>
      </trkpt>
      <trkpt lat="43.07445396669209" lon="-5.36380497738719">
        <ele>1545.0920000000001</ele>
        <time>2025-06-14T08:24:06Z</time>
      </trkpt>
      <trkpt lat="43.074638033285737" lon="-5.363810006529093">
        <ele>1546.1859999999999</ele>
        <time>2025-06-14T08:24:33Z</time>
      </trkpt>
      <trkpt lat="43.075003987178206" lon="-5.363842025399208">
        <ele>1551.085</ele>
        <time>2025-06-14T08:25:15Z</time>
      </trkpt>
      <trkpt lat="43.075185036286712" lon="-5.363875972107053">
        <ele>1551.018</ele>
        <time>2025-06-14T08:25:33Z</time>
      </trkpt>
      <trkpt lat="43.075371030718088" lon="-5.363913020119071">
        <ele>1551.1310000000001</ele>
        <time>2025-06-14T08:25:53Z</time>
      </trkpt>
      <trkpt lat="43.075544033199549" lon="-5.364004969596863">
        <ele>1551.1780000000001</ele>
        <time>2025-06-14T08:26:15Z</time>
      </trkpt>
      <trkpt lat="43.075688034296036" lon="-5.364164980128408">
        <ele>1552.0329999999999</ele>
        <time>2025-06-14T08:26:35Z</time>
      </trkpt>
      <trkpt lat="43.07580697350204" lon="-5.364357009530067">
        <ele>1550.126</ele>
        <time>2025-06-14T08:26:56Z</time>
      </trkpt>
      <trkpt lat="43.075961032882333" lon="-5.364502016454935">
        <ele>1553.009</ele>
        <time>2025-06-14T08:27:16Z</time>
      </trkpt>
      <trkpt lat="43.076122971251607" lon="-5.364617016166449">
        <ele>1553.1389999999999</ele>
        <time>2025-06-14T08:27:34Z</time>
      </trkpt>
      <trkpt lat="43.076291028410196" lon="-5.364723969250917">
        <ele>1553.098</ele>
        <time>2025-06-14T08:27:52Z</time>
      </trkpt>
      <trkpt lat="43.076455984264612" lon="-5.364849027246237">
        <ele>1553.0150000000001</ele>
        <time>2025-06-14T08:28:09Z</time>
      </trkpt>
      <trkpt lat="43.07660099118948" lon="-5.365014988929033">
        <ele>1551.127</ele>
        <time>2025-06-14T08:28:27Z</time>
      </trkpt>
      <trkpt lat="43.076743986457586" lon="-5.365172987803817">
        <ele>1551.021</ele>
        <time>2025-06-14T08:28:44Z</time>
      </trkpt>
      <trkpt lat="43.076906008645892" lon="-5.365284970030189">
        <ele>1550.038</ele>
        <time>2025-06-14T08:29:02Z</time>
      </trkpt>
      <trkpt lat="43.077075993642211" lon="-5.365366023033857">
        <ele>1549.0599999999999</ele>
        <time>2025-06-14T08:29:27Z</time>
      </trkpt>
      <trkpt lat="43.077251007780433" lon="-5.365440035238862">
        <ele>1550.7329999999999</ele>
        <time>2025-06-14T08:29:49Z</time>
      </trkpt>
      <trkpt lat="43.077427027747035" lon="-5.365526033565402">
        <ele>1552.7560000000001</ele>
        <time>2025-06-14T08:30:07Z</time>
      </trkpt>
      <trkpt lat="43.077618973329663" lon="-5.365527039393783">
        <ele>1553.057</ele>
        <time>2025-06-14T08:30:29Z</time>
      </trkpt>
      <trkpt lat="43.077800022438169" lon="-5.365471970289946">
        <ele>1554</ele>
        <time>2025-06-14T08:30:43Z</time>
      </trkpt>
      <trkpt lat="43.077961038798094" lon="-5.36535101942718">
        <ele>1555.02</ele>
        <time>2025-06-14T08:30:58Z</time>
      </trkpt>
      <trkpt lat="43.078135969117284" lon="-5.365294022485614">
        <ele>1554.7090000000001</ele>
        <time>2025-06-14T08:31:14Z</time>
      </trkpt>
      <trkpt lat="43.078325986862183" lon="-5.365284970030189">
        <ele>1555.0170000000001</ele>
        <time>2025-06-14T08:31:32Z</time>
      </trkpt>
      <trkpt lat="43.078514998778701" lon="-5.365289999172092">
        <ele>1555.056</ele>
        <time>2025-06-14T08:31:50Z</time>
      </trkpt>
      <trkpt lat="43.078695964068174" lon="-5.36530701443553">
        <ele>1554.0630000000001</ele>
        <time>2025-06-14T08:32:07Z</time>
      </trkpt>
      <trkpt lat="43.078881958499551" lon="-5.365324029698968">
        <ele>1554.0650000000001</ele>
        <time>2025-06-14T08:32:24Z</time>
      </trkpt>
      <trkpt lat="43.079069964587688" lon="-5.365354958921671">
        <ele>1554.039</ele>
        <time>2025-06-14T08:32:42Z</time>
      </trkpt>
      <trkpt lat="43.079250007867813" lon="-5.365381026640534">
        <ele>1554.056</ele>
        <time>2025-06-14T08:33:00Z</time>
      </trkpt>
      <trkpt lat="43.079423010349274" lon="-5.36545998416841">
        <ele>1554.098</ele>
        <time>2025-06-14T08:33:20Z</time>
      </trkpt>
      <trkpt lat="43.079589977860451" lon="-5.365573978051543">
        <ele>1552.191</ele>
        <time>2025-06-14T08:33:38Z</time>
      </trkpt>
      <trkpt lat="43.079773038625717" lon="-5.36558898165822">
        <ele>1552.0940000000001</ele>
        <time>2025-06-14T08:33:55Z</time>
      </trkpt>
      <trkpt lat="43.079958027228713" lon="-5.365552017465234">
        <ele>1551.3679999999999</ele>
        <time>2025-06-14T08:34:12Z</time>
      </trkpt>
      <trkpt lat="43.080143015831709" lon="-5.365493008866906">
        <ele>1551.0419999999999</ele>
        <time>2025-06-14T08:34:30Z</time>
      </trkpt>
      <trkpt lat="43.080329010263085" lon="-5.365438023582101">
        <ele>1551.0260000000001</ele>
        <time>2025-06-14T08:34:48Z</time>
      </trkpt>
      <trkpt lat="43.080513998866081" lon="-5.365392006933689">
        <ele>1552.009</ele>
        <time>2025-06-14T08:35:06Z</time>
      </trkpt>
      <trkpt lat="43.080692030489445" lon="-5.365349007770419">
        <ele>1551.028</ele>
        <time>2025-06-14T08:35:23Z</time>
      </trkpt>
      <trkpt lat="43.08085598051548" lon="-5.365228978917003">
        <ele>1552.057</ele>
        <time>2025-06-14T08:35:41Z</time>
      </trkpt>
      <trkpt lat="43.080990007147193" lon="-5.365064023062587">
        <ele>1552.0740000000001</ele>
        <time>2025-06-14T08:35:59Z</time>
      </trkpt>
      <trkpt lat="43.08115404099226" lon="-5.36494298838079">
        <ele>1550.146</ele>
        <time>2025-06-14T08:36:16Z</time>
      </trkpt>
      <trkpt lat="43.081341041252017" lon="-5.364948017522693">
        <ele>1548.02</ele>
        <time>2025-06-14T08:36:38Z</time>
      </trkpt>
      <trkpt lat="43.081505997106433" lon="-5.364842992275953">
        <ele>1546.087</ele>
        <time>2025-06-14T08:36:56Z</time>
      </trkpt>
      <trkpt lat="43.081637006253004" lon="-5.36466202698648">
        <ele>1546.799</ele>
        <time>2025-06-14T08:37:22Z</time>
      </trkpt>
      <trkpt lat="43.081804979592562" lon="-5.364545015618205">
        <ele>1549.1220000000001</ele>
        <time>2025-06-14T08:37:55Z</time>
      </trkpt>
      <trkpt lat="43.081982005387545" lon="-5.364480977877975">
        <ele>1550.095</ele>
        <time>2025-06-14T08:38:15Z</time>
      </trkpt>
      <trkpt lat="43.082160037010908" lon="-5.364444013684988">
        <ele>1548.7950000000001</ele>
        <time>2025-06-14T08:38:33Z</time>
      </trkpt>
      <trkpt lat="43.082335973158479" lon="-5.364374024793506">
        <ele>1548.049</ele>
        <time>2025-06-14T08:38:48Z</time>
      </trkpt>
      <trkpt lat="43.082494977861643" lon="-5.364250978454948">
        <ele>1548.223</ele>
        <time>2025-06-14T08:39:03Z</time>
      </trkpt>
      <trkpt lat="43.082661023363471" lon="-5.36414897069335">
        <ele>1550.009</ele>
        <time>2025-06-14T08:39:17Z</time>
      </trkpt>
      <trkpt lat="43.082841988652945" lon="-5.364065989851952">
        <ele>1550.7809999999999</ele>
        <time>2025-06-14T08:39:34Z</time>
      </trkpt>
      <trkpt lat="43.083018008619547" lon="-5.364006981253624">
        <ele>1551.02</ele>
        <time>2025-06-14T08:39:51Z</time>
      </trkpt>
      <trkpt lat="43.083196962252259" lon="-5.363957025110722">
        <ele>1551.067</ele>
        <time>2025-06-14T08:40:09Z</time>
      </trkpt>
      <trkpt lat="43.0833709705621" lon="-5.363888964056969">
        <ele>1551.079</ele>
        <time>2025-06-14T08:40:27Z</time>
      </trkpt>
      <trkpt lat="43.083554031327367" lon="-5.363811012357473">
        <ele>1551.0930000000001</ele>
        <time>2025-06-14T08:40:47Z</time>
      </trkpt>
      <trkpt lat="43.083727033808827" lon="-5.363719984889031">
        <ele>1551.0699999999999</ele>
        <time>2025-06-14T08:41:05Z</time>
      </trkpt>
      <trkpt lat="43.083870029076934" lon="-5.363562991842628">
        <ele>1552.742</ele>
        <time>2025-06-14T08:41:23Z</time>
      </trkpt>
      <trkpt lat="43.084043031558394" lon="-5.363457966595888">
        <ele>1553.095</ele>
        <time>2025-06-14T08:41:45Z</time>
      </trkpt>
      <trkpt lat="43.084208993241191" lon="-5.363353025168181">
        <ele>1555.048</ele>
        <time>2025-06-14T08:42:06Z</time>
      </trkpt>
      <trkpt lat="43.084365986287594" lon="-5.363224027678371">
        <ele>1556.075</ele>
        <time>2025-06-14T08:42:28Z</time>
      </trkpt>
      <trkpt lat="43.084503030404449" lon="-5.363056976348162">
        <ele>1559.028</ele>
        <time>2025-06-14T08:42:49Z</time>
      </trkpt>
      <trkpt lat="43.084609983488917" lon="-5.362850027158856">
        <ele>1561.02</ele>
        <time>2025-06-14T08:43:14Z</time>
      </trkpt>
      <trkpt lat="43.08472003787756" lon="-5.362632013857365">
        <ele>1564.009</ele>
        <time>2025-06-14T08:43:40Z</time>
      </trkpt>
      <trkpt lat="43.084868984296918" lon="-5.362486001104116">
        <ele>1568.0989999999999</ele>
        <time>2025-06-14T08:44:02Z</time>
      </trkpt>
      <trkpt lat="43.085037041455507" lon="-5.362384999170899">
        <ele>1569.038</ele>
        <time>2025-06-14T08:44:23Z</time>
      </trkpt>
      <trkpt lat="43.085163021460176" lon="-5.362205961719155">
        <ele>1569.325</ele>
        <time>2025-06-14T08:44:43Z</time>
      </trkpt>
      <trkpt lat="43.085252959281206" lon="-5.361985014751554">
        <ele>1572.047</ele>
        <time>2025-06-14T08:45:04Z</time>
      </trkpt>
      <trkpt lat="43.0853689648211" lon="-5.361790973693132">
        <ele>1574.011</ele>
        <time>2025-06-14T08:45:26Z</time>
      </trkpt>
      <trkpt lat="43.085499973967671" lon="-5.361604979261756">
        <ele>1574.068</ele>
        <time>2025-06-14T08:45:48Z</time>
      </trkpt>
      <trkpt lat="43.085634000599384" lon="-5.361428037285805">
        <ele>1577.03</ele>
        <time>2025-06-14T08:46:12Z</time>
      </trkpt>
      <trkpt lat="43.085772972553968" lon="-5.361261991783977">
        <ele>1580.0730000000001</ele>
        <time>2025-06-14T08:46:34Z</time>
      </trkpt>
      <trkpt lat="43.085908005014062" lon="-5.361084965988994">
        <ele>1581.056</ele>
        <time>2025-06-14T08:46:55Z</time>
      </trkpt>
      <trkpt lat="43.086043037474155" lon="-5.360917998477817">
        <ele>1583.0519999999999</ele>
        <time>2025-06-14T08:47:14Z</time>
      </trkpt>
      <trkpt lat="43.086163988336921" lon="-5.360724963247776">
        <ele>1585.0530000000001</ele>
        <time>2025-06-14T08:47:33Z</time>
      </trkpt>
      <trkpt lat="43.086277982220054" lon="-5.360533017665148">
        <ele>1586.008</ele>
        <time>2025-06-14T08:47:50Z</time>
      </trkpt>
      <trkpt lat="43.086417960003018" lon="-5.36036403849721">
        <ele>1586.7090000000001</ele>
        <time>2025-06-14T08:48:08Z</time>
      </trkpt>
      <trkpt lat="43.08654704131186" lon="-5.36017200909555">
        <ele>1585.037</ele>
        <time>2025-06-14T08:48:26Z</time>
      </trkpt>
      <trkpt lat="43.086672015488148" lon="-5.359991965815425">
        <ele>1584.056</ele>
        <time>2025-06-14T08:48:43Z</time>
      </trkpt>
      <trkpt lat="43.086809981614351" lon="-5.359817035496235">
        <ele>1585.0129999999999</ele>
        <time>2025-06-14T08:48:59Z</time>
      </trkpt>
      <trkpt lat="43.086954988539219" lon="-5.359664987772703">
        <ele>1585.0150000000001</ele>
        <time>2025-06-14T08:49:16Z</time>
      </trkpt>
      <trkpt lat="43.087111981585622" lon="-5.359519980847836">
        <ele>1584.059</ele>
        <time>2025-06-14T08:49:34Z</time>
      </trkpt>
      <trkpt lat="43.087288001552224" lon="-5.35944202914834">
        <ele>1584.126</ele>
        <time>2025-06-14T08:49:57Z</time>
      </trkpt>
      <trkpt lat="43.087441977113485" lon="-5.359305990859866">
        <ele>1585.038</ele>
        <time>2025-06-14T08:50:14Z</time>
      </trkpt>
      <trkpt lat="43.087578015401959" lon="-5.359131982550025">
        <ele>1586.0809999999999</ele>
        <time>2025-06-14T08:50:33Z</time>
      </trkpt>
      <trkpt lat="43.087721010670066" lon="-5.358961997553706">
        <ele>1585.394</ele>
        <time>2025-06-14T08:50:51Z</time>
      </trkpt>
      <trkpt lat="43.087883032858372" lon="-5.35884004086256">
        <ele>1586.1849999999999</ele>
        <time>2025-06-14T08:51:10Z</time>
      </trkpt>
      <trkpt lat="43.088068021461368" lon="-5.358825959265232">
        <ele>1587.1890000000001</ele>
        <time>2025-06-14T08:51:57Z</time>
      </trkpt>
      <trkpt lat="43.088245969265699" lon="-5.358762005344033">
        <ele>1587.0170000000001</ele>
        <time>2025-06-14T08:52:17Z</time>
      </trkpt>
      <trkpt lat="43.088427018374205" lon="-5.358694028109312">
        <ele>1588.9090000000001</ele>
        <time>2025-06-14T08:52:37Z</time>
      </trkpt>
      <trkpt lat="43.088603960350156" lon="-5.358638959005475">
        <ele>1589.8900000000001</ele>
        <time>2025-06-14T08:52:58Z</time>
      </trkpt>
      <trkpt lat="43.08878400363028" lon="-5.358655974268913">
        <ele>1591.0889999999999</ele>
        <time>2025-06-14T08:53:20Z</time>
      </trkpt>
      <trkpt lat="43.088963963091373" lon="-5.358624961227179">
        <ele>1593.0160000000001</ele>
        <time>2025-06-14T08:53:41Z</time>
      </trkpt>
      <trkpt lat="43.089146018028259" lon="-5.358575005084276">
        <ele>1595.058</ele>
        <time>2025-06-14T08:54:02Z</time>
      </trkpt>
      <trkpt lat="43.089332012459636" lon="-5.358529994264245">
        <ele>1598.7619999999999</ele>
        <time>2025-06-14T08:54:22Z</time>
      </trkpt>
      <trkpt lat="43.089518006891012" lon="-5.35847500897944">
        <ele>1599.049</ele>
        <time>2025-06-14T08:54:43Z</time>
      </trkpt>
      <trkpt lat="43.089696960523725" lon="-5.358418012037873">
        <ele>1600.991</ele>
        <time>2025-06-14T08:55:02Z</time>
      </trkpt>
      <trkpt lat="43.089883960783482" lon="-5.358395967632532">
        <ele>1600.0940000000001</ele>
        <time>2025-06-14T08:55:22Z</time>
      </trkpt>
      <trkpt lat="43.0900729727" lon="-5.358393033966422">
        <ele>1604.047</ele>
        <time>2025-06-14T08:55:57Z</time>
      </trkpt>
      <trkpt lat="43.09024203568697" lon="-5.358280967921019">
        <ele>1604.3409999999999</ele>
        <time>2025-06-14T08:56:28Z</time>
      </trkpt>
      <trkpt lat="43.090381007641554" lon="-5.358119029551745">
        <ele>1604.0809999999999</ele>
        <time>2025-06-14T08:56:43Z</time>
      </trkpt>
      <trkpt lat="43.090491984039545" lon="-5.357921971008182">
        <ele>1605.7090000000001</ele>
        <time>2025-06-14T08:56:58Z</time>
      </trkpt>
      <trkpt lat="43.090621987357736" lon="-5.357738994061947">
        <ele>1607.9090000000001</ele>
        <time>2025-06-14T08:57:13Z</time>
      </trkpt>
      <trkpt lat="43.090750984847546" lon="-5.357561968266964">
        <ele>1607.9359999999999</ele>
        <time>2025-06-14T08:57:30Z</time>
      </trkpt>
      <trkpt lat="43.090902026742697" lon="-5.357428025454283">
        <ele>1609.095</ele>
        <time>2025-06-14T08:57:50Z</time>
      </trkpt>
      <trkpt lat="43.091079974547029" lon="-5.357497008517385">
        <ele>1610.0719999999999</ele>
        <time>2025-06-14T08:58:18Z</time>
      </trkpt>
      <trkpt lat="43.091260017827153" lon="-5.357571020722389">
        <ele>1613.0440000000001</ele>
        <time>2025-06-14T08:58:41Z</time>
      </trkpt>
      <trkpt lat="43.091448023915291" lon="-5.35757596604526">
        <ele>1615.068</ele>
        <time>2025-06-14T08:59:04Z</time>
      </trkpt>
      <trkpt lat="43.091624965891242" lon="-5.357523998245597">
        <ele>1617.7650000000001</ele>
        <time>2025-06-14T08:59:28Z</time>
      </trkpt>
      <trkpt lat="43.091793023049831" lon="-5.357418972998858">
        <ele>1621.077</ele>
        <time>2025-06-14T09:00:11Z</time>
      </trkpt>
      <trkpt lat="43.09193903580308" lon="-5.357263991609216">
        <ele>1624.04</ele>
        <time>2025-06-14T09:00:34Z</time>
      </trkpt>
      <trkpt lat="43.092072978615761" lon="-5.357098029926419">
        <ele>1626.0830000000001</ele>
        <time>2025-06-14T09:00:56Z</time>
      </trkpt>
      <trkpt lat="43.09219996444881" lon="-5.356918992474675">
        <ele>1628.048</ele>
        <time>2025-06-14T09:01:18Z</time>
      </trkpt>
      <trkpt lat="43.092296021059155" lon="-5.356705002486706">
        <ele>1629.0609999999999</ele>
        <time>2025-06-14T09:01:43Z</time>
      </trkpt>
      <trkpt lat="43.092379001900554" lon="-5.356461005285382">
        <ele>1633.0170000000001</ele>
        <time>2025-06-14T09:03:59Z</time>
      </trkpt>
      <trkpt lat="43.092466006055474" lon="-5.356243997812271">
        <ele>1637.009</ele>
        <time>2025-06-14T09:04:25Z</time>
      </trkpt>
      <trkpt lat="43.092566002160311" lon="-5.356036964803934">
        <ele>1639.0260000000001</ele>
        <time>2025-06-14T09:04:50Z</time>
      </trkpt>
      <trkpt lat="43.092701034620404" lon="-5.355866979807615">
        <ele>1640.075</ele>
        <time>2025-06-14T09:05:18Z</time>
      </trkpt>
      <trkpt lat="43.092827014625072" lon="-5.355687020346522">
        <ele>1642.982</ele>
        <time>2025-06-14T09:05:42Z</time>
      </trkpt>
      <trkpt lat="43.092903960496187" lon="-5.355460038408637">
        <ele>1645.2439999999999</ele>
        <time>2025-06-14T09:06:07Z</time>
      </trkpt>
      <trkpt lat="43.092987025156617" lon="-5.355238001793623">
        <ele>1649.2180000000001</ele>
        <time>2025-06-14T09:06:36Z</time>
      </trkpt>
      <trkpt lat="43.093084003776312" lon="-5.355029040947557">
        <ele>1651.9549999999999</ele>
        <time>2025-06-14T09:07:05Z</time>
      </trkpt>
      <trkpt lat="43.09320998378098" lon="-5.354833994060755">
        <ele>1655.787</ele>
        <time>2025-06-14T09:07:42Z</time>
      </trkpt>
      <trkpt lat="43.093279972672462" lon="-5.354601982980967">
        <ele>1659.03</ele>
        <time>2025-06-14T09:08:11Z</time>
      </trkpt>
      <trkpt lat="43.093321966007352" lon="-5.354362009093165">
        <ele>1663.7629999999999</ele>
        <time>2025-06-14T09:08:40Z</time>
      </trkpt>
      <trkpt lat="43.093320038169622" lon="-5.3541149944067">
        <ele>1667.046</ele>
        <time>2025-06-14T09:09:06Z</time>
      </trkpt>
      <trkpt lat="43.093324983492494" lon="-5.353862028568983">
        <ele>1669.788</ele>
        <time>2025-06-14T09:09:32Z</time>
      </trkpt>
      <trkpt lat="43.09338198043406" lon="-5.353627000004053">
        <ele>1673.0160000000001</ele>
        <time>2025-06-14T09:15:13Z</time>
      </trkpt>
      <trkpt lat="43.093416010960937" lon="-5.353385014459491">
        <ele>1672.009</ele>
        <time>2025-06-14T09:16:40Z</time>
      </trkpt>
      <trkpt lat="43.093443000689149" lon="-5.353131964802742">
        <ele>1673.0160000000001</ele>
        <time>2025-06-14T09:17:04Z</time>
      </trkpt>
      <trkpt lat="43.093470996245742" lon="-5.352886961773038">
        <ele>1674.085</ele>
        <time>2025-06-14T09:17:36Z</time>
      </trkpt>
      <trkpt lat="43.093515001237392" lon="-5.352646987885237">
        <ele>1673.0820000000001</ele>
        <time>2025-06-14T09:17:55Z</time>
      </trkpt>
      <trkpt lat="43.093565041199327" lon="-5.352400979027152">
        <ele>1673.0139999999999</ele>
        <time>2025-06-14T09:18:14Z</time>
      </trkpt>
      <trkpt lat="43.093667970970273" lon="-5.352192018181086">
        <ele>1675.078</ele>
        <time>2025-06-14T09:18:40Z</time>
      </trkpt>
      <trkpt lat="43.093836028128862" lon="-5.352076012641192">
        <ele>1677.0150000000001</ele>
        <time>2025-06-14T09:19:02Z</time>
      </trkpt>
      <trkpt lat="43.09400400146842" lon="-5.351969981566072">
        <ele>1677.077</ele>
        <time>2025-06-14T09:19:23Z</time>
      </trkpt>
      <trkpt lat="43.094139033928514" lon="-5.351804019883275">
        <ele>1679.02</ele>
        <time>2025-06-14T09:19:48Z</time>
      </trkpt>
      <trkpt lat="43.094079019501805" lon="-5.351567985489965">
        <ele>1682.0730000000001</ele>
        <time>2025-06-14T09:20:24Z</time>
      </trkpt>
      <trkpt lat="43.094253027811646" lon="-5.351500008255243">
        <ele>1687.0329999999999</ele>
        <time>2025-06-14T09:21:13Z</time>
      </trkpt>
      <trkpt lat="43.094423012807965" lon="-5.351595981046557">
        <ele>1689.723</ele>
        <time>2025-06-14T09:21:39Z</time>
      </trkpt>
      <trkpt lat="43.094560978934169" lon="-5.351766971871257">
        <ele>1692.0150000000001</ele>
        <time>2025-06-14T09:22:07Z</time>
      </trkpt>
      <trkpt lat="43.094714032486081" lon="-5.351909967139363">
        <ele>1700.009</ele>
        <time>2025-06-14T09:24:56Z</time>
      </trkpt>
      <trkpt lat="43.094865996390581" lon="-5.352054974064231">
        <ele>1701.0150000000001</ele>
        <time>2025-06-14T09:25:25Z</time>
      </trkpt>
      <trkpt lat="43.09499298222363" lon="-5.352234011515975">
        <ele>1703.0239999999999</ele>
        <time>2025-06-14T09:25:45Z</time>
      </trkpt>
      <trkpt lat="43.095065988600254" lon="-5.352469040080905">
        <ele>1703.0709999999999</ele>
        <time>2025-06-14T09:26:06Z</time>
      </trkpt>
      <trkpt lat="43.095107981935143" lon="-5.352714965119958">
        <ele>1704.0530000000001</ele>
        <time>2025-06-14T09:26:25Z</time>
      </trkpt>
      <trkpt lat="43.095220969989896" lon="-5.352918980643153">
        <ele>1705.057</ele>
        <time>2025-06-14T09:27:35Z</time>
      </trkpt>
      <trkpt lat="43.095302022993565" lon="-5.353140011429787">
        <ele>1706.354</ele>
        <time>2025-06-14T09:28:06Z</time>
      </trkpt>
      <trkpt lat="43.095386009663343" lon="-5.353360958397389">
        <ele>1709.0160000000001</ele>
        <time>2025-06-14T09:28:42Z</time>
      </trkpt>
      <trkpt lat="43.095378968864679" lon="-5.353616019710898">
        <ele>1714.059</ele>
        <time>2025-06-14T09:29:09Z</time>
      </trkpt>
      <trkpt lat="43.095351979136467" lon="-5.353864962235093">
        <ele>1718.0419999999999</ele>
        <time>2025-06-14T09:29:42Z</time>
      </trkpt>
      <trkpt lat="43.09535801410675" lon="-5.354112982749939">
        <ele>1721.066</ele>
        <time>2025-06-14T09:30:13Z</time>
      </trkpt>
      <trkpt lat="43.095375029370189" lon="-5.35437298938632">
        <ele>1726.029</ele>
        <time>2025-06-14T09:30:52Z</time>
      </trkpt>
      <trkpt lat="43.095377963036299" lon="-5.354625033214688">
        <ele>1730.021</ele>
        <time>2025-06-14T09:31:19Z</time>
      </trkpt>
      <trkpt lat="43.095340998843312" lon="-5.354870958253741">
        <ele>1733.009</ele>
        <time>2025-06-14T09:31:47Z</time>
      </trkpt>
      <trkpt lat="43.095321971923113" lon="-5.355118978768587">
        <ele>1743.028</ele>
        <time>2025-06-14T09:34:50Z</time>
      </trkpt>
      <trkpt lat="43.095391038805246" lon="-5.355346966534853">
        <ele>1744.1769999999999</ele>
        <time>2025-06-14T09:35:09Z</time>
      </trkpt>
      <trkpt lat="43.095489023253322" lon="-5.355563974007964">
        <ele>1745.0640000000001</ele>
        <time>2025-06-14T09:35:31Z</time>
      </trkpt>
      <trkpt lat="43.095641992986202" lon="-5.355701018124819">
        <ele>1748.0360000000001</ele>
        <time>2025-06-14T09:35:53Z</time>
      </trkpt>
      <trkpt lat="43.095697984099388" lon="-5.355935040861368">
        <ele>1748.0599999999999</ele>
        <time>2025-06-14T09:36:18Z</time>
      </trkpt>
      <trkpt lat="43.09557200409472" lon="-5.356115000322461">
        <ele>1749.0170000000001</ele>
        <time>2025-06-14T09:36:43Z</time>
      </trkpt>
      <trkpt lat="43.095533028244972" lon="-5.356367966160178">
        <ele>1752.039</ele>
        <time>2025-06-14T09:37:06Z</time>
      </trkpt>
      <trkpt lat="43.095492040738463" lon="-5.356611963361502">
        <ele>1754.972</ele>
        <time>2025-06-14T09:37:32Z</time>
      </trkpt>
      <trkpt lat="43.09546697884798" lon="-5.356857972219586">
        <ele>1756.075</ele>
        <time>2025-06-14T09:37:52Z</time>
      </trkpt>
      <trkpt lat="43.095464967191219" lon="-5.357117978855968">
        <ele>1756.077</ele>
        <time>2025-06-14T09:38:13Z</time>
      </trkpt>
      <trkpt lat="43.09546697884798" lon="-5.357369016855955">
        <ele>1756.3610000000001</ele>
        <time>2025-06-14T09:38:34Z</time>
      </trkpt>
      <trkpt lat="43.095527999103069" lon="-5.357607984915376">
        <ele>1757.027</ele>
        <time>2025-06-14T09:39:48Z</time>
      </trkpt>
      <trkpt lat="43.095586001873016" lon="-5.357844019308686">
        <ele>1757.009</ele>
        <time>2025-06-14T09:40:07Z</time>
      </trkpt>
      <trkpt lat="43.095664959400892" lon="-5.35806898958981">
        <ele>1758.3489999999999</ele>
        <time>2025-06-14T09:40:26Z</time>
      </trkpt>
      <trkpt lat="43.095651967450976" lon="-5.358314998447895">
        <ele>1758.018</ele>
        <time>2025-06-14T09:40:46Z</time>
      </trkpt>
      <trkpt lat="43.09565900824964" lon="-5.358573999255896">
        <ele>1760.0350000000001</ele>
        <time>2025-06-14T09:41:07Z</time>
      </trkpt>
      <trkpt lat="43.095737965777516" lon="-5.358805004507303">
        <ele>1759.037</ele>
        <time>2025-06-14T09:41:28Z</time>
      </trkpt>
      <trkpt lat="43.095848020166159" lon="-5.359006002545357">
        <ele>1757.0509999999999</ele>
        <time>2025-06-14T09:42:06Z</time>
      </trkpt>
      <trkpt lat="43.095779037103057" lon="-5.359238013625145">
        <ele>1758.018</ele>
        <time>2025-06-14T09:42:31Z</time>
      </trkpt>
      <trkpt lat="43.095770990476012" lon="-5.359489973634481">
        <ele>1759.0599999999999</ele>
        <time>2025-06-14T09:42:51Z</time>
      </trkpt>
      <trkpt lat="43.095837961882353" lon="-5.359718967229128">
        <ele>1761.943</ele>
        <time>2025-06-14T09:43:13Z</time>
      </trkpt>
      <trkpt lat="43.095878027379513" lon="-5.359960030764341">
        <ele>1764.7460000000001</ele>
        <time>2025-06-14T09:43:38Z</time>
      </trkpt>
      <trkpt lat="43.095975005999207" lon="-5.360177038237453">
        <ele>1766.0450000000001</ele>
        <time>2025-06-14T09:44:05Z</time>
      </trkpt>
      <trkpt lat="43.096081959083676" lon="-5.360378036275506">
        <ele>1769.047</ele>
        <time>2025-06-14T09:44:43Z</time>
      </trkpt>
      <trkpt lat="43.09613099321723" lon="-5.360615998506546">
        <ele>1774.9110000000001</ele>
        <time>2025-06-14T09:45:48Z</time>
      </trkpt>
      <trkpt lat="43.096104003489017" lon="-5.360872987657785">
        <ele>1775.7090000000001</ele>
        <time>2025-06-14T09:46:19Z</time>
      </trkpt>
      <trkpt lat="43.095949022099376" lon="-5.361001985147595">
        <ele>1779.9559999999999</ele>
        <time>2025-06-14T09:46:48Z</time>
      </trkpt>
      <trkpt lat="43.095817007124424" lon="-5.361176999285817">
        <ele>1783.0550000000001</ele>
        <time>2025-06-14T09:47:15Z</time>
      </trkpt>
      <trkpt lat="43.095774007961154" lon="-5.361422002315521">
        <ele>1783.0920000000001</ele>
        <time>2025-06-14T09:47:37Z</time>
      </trkpt>
      <trkpt lat="43.095718016847968" lon="-5.361658958718181">
        <ele>1783.0239999999999</ele>
        <time>2025-06-14T09:47:56Z</time>
      </trkpt>
      <trkpt lat="43.095597987994552" lon="-5.361851993948221">
        <ele>1784.078</ele>
        <time>2025-06-14T09:48:18Z</time>
      </trkpt>
      <trkpt lat="43.095442000776529" lon="-5.361994989216328">
        <ele>1781.125</ele>
        <time>2025-06-14T09:48:38Z</time>
      </trkpt>
      <trkpt lat="43.095299005508423" lon="-5.362163968384266">
        <ele>1780.357</ele>
        <time>2025-06-14T09:49:05Z</time>
      </trkpt>
      <trkpt lat="43.095175959169865" lon="-5.362346023321152">
        <ele>1779.04</ele>
        <time>2025-06-14T09:49:23Z</time>
      </trkpt>
      <trkpt lat="43.095064982771873" lon="-5.362548027187586">
        <ele>1778.883</ele>
        <time>2025-06-14T09:49:43Z</time>
      </trkpt>
      <trkpt lat="43.094954006373882" lon="-5.362756988033652">
        <ele>1776.0250000000001</ele>
        <time>2025-06-14T09:50:02Z</time>
      </trkpt>
      <trkpt lat="43.094862978905439" lon="-5.362980030477047">
        <ele>1775.326</ele>
        <time>2025-06-14T09:50:26Z</time>
      </trkpt>
      <trkpt lat="43.094787960872054" lon="-5.363203994929791">
        <ele>1775.008</ele>
        <time>2025-06-14T09:52:09Z</time>
      </trkpt>
      <trkpt lat="43.094696011394262" lon="-5.363421002402902">
        <ele>1775.009</ele>
        <time>2025-06-14T09:52:34Z</time>
      </trkpt>
      <trkpt lat="43.094606995582581" lon="-5.363638009876013">
        <ele>1775.0940000000001</ele>
        <time>2025-06-14T09:52:54Z</time>
      </trkpt>
      <trkpt lat="43.094526026397943" lon="-5.36386800929904">
        <ele>1775.7829999999999</ele>
        <time>2025-06-14T09:53:31Z</time>
      </trkpt>
      <trkpt lat="43.094509011134505" lon="-5.364128015935421">
        <ele>1780.0899999999999</ele>
        <time>2025-06-14T09:54:10Z</time>
      </trkpt>
      <trkpt lat="43.094399040564895" lon="-5.364332031458616">
        <ele>1780.0419999999999</ele>
        <time>2025-06-14T09:54:40Z</time>
      </trkpt>
      <trkpt lat="43.094314970076084" lon="-5.364560019224882">
        <ele>1779.076</ele>
        <time>2025-06-14T09:55:53Z</time>
      </trkpt>
      <trkpt lat="43.094275994226336" lon="-5.364805022254586">
        <ele>1779.0429999999999</ele>
        <time>2025-06-14T09:56:15Z</time>
      </trkpt>
      <trkpt lat="43.094339026138186" lon="-5.365038961172104">
        <ele>1780.0250000000001</ele>
        <time>2025-06-14T09:56:45Z</time>
      </trkpt>
      <trkpt lat="43.094250010326505" lon="-5.365260997787118">
        <ele>1779.098</ele>
        <time>2025-06-14T09:57:57Z</time>
      </trkpt>
      <trkpt lat="43.094121012836695" lon="-5.365456966683269">
        <ele>1774.0409999999999</ele>
        <time>2025-06-14T10:00:19Z</time>
      </trkpt>
      <trkpt lat="43.094119001179934" lon="-5.365706998854876">
        <ele>1776.0329999999999</ele>
        <time>2025-06-14T10:00:40Z</time>
      </trkpt>
      <trkpt lat="43.09415596537292" lon="-5.36595300771296">
        <ele>1778.0229999999999</ele>
        <time>2025-06-14T10:01:05Z</time>
      </trkpt>
      <trkpt lat="43.094011964276433" lon="-5.366106983274221">
        <ele>1782.7149999999999</ele>
        <time>2025-06-14T10:01:39Z</time>
      </trkpt>
      <trkpt lat="43.093908028677106" lon="-5.366308987140656">
        <ele>1790.009</ele>
        <time>2025-06-14T10:02:20Z</time>
      </trkpt>
      <trkpt lat="43.093829993158579" lon="-5.36653202958405">
        <ele>1793.0250000000001</ele>
        <time>2025-06-14T10:02:46Z</time>
      </trkpt>
      <trkpt lat="43.093765033408999" lon="-5.366764962673187">
        <ele>1797.0740000000001</ele>
        <time>2025-06-14T10:03:12Z</time>
      </trkpt>
      <trkpt lat="43.093736032024026" lon="-5.367013989016414">
        <ele>1799.751</ele>
        <time>2025-06-14T10:03:37Z</time>
      </trkpt>
      <trkpt lat="43.093708036467433" lon="-5.36726301535964">
        <ele>1802.3330000000001</ele>
        <time>2025-06-14T10:04:06Z</time>
      </trkpt>
      <trkpt lat="43.093662019819021" lon="-5.367502989247441">
        <ele>1806.0170000000001</ele>
        <time>2025-06-14T10:04:36Z</time>
      </trkpt>
      <trkpt lat="43.093671994283795" lon="-5.367750003933907">
        <ele>1808.0440000000001</ele>
        <time>2025-06-14T10:04:56Z</time>
      </trkpt>
      <trkpt lat="43.093662019819021" lon="-5.368001963943243">
        <ele>1808.0360000000001</ele>
        <time>2025-06-14T10:05:18Z</time>
      </trkpt>
      <trkpt lat="43.09366000816226" lon="-5.368254007771611">
        <ele>1809.9490000000001</ele>
        <time>2025-06-14T10:07:02Z</time>
      </trkpt>
      <trkpt lat="43.093775007873774" lon="-5.368450982496142">
        <ele>1816.0820000000001</ele>
        <time>2025-06-14T10:07:33Z</time>
      </trkpt>
      <trkpt lat="43.093853965401649" lon="-5.368688022717834">
        <ele>1820.047</ele>
        <time>2025-06-14T10:08:37Z</time>
      </trkpt>
      <trkpt lat="43.093985980376601" lon="-5.368870999664068">
        <ele>1832.729</ele>
        <time>2025-06-14T10:09:50Z</time>
      </trkpt>
      <trkpt lat="43.094052029773593" lon="-5.369106028228998">
        <ele>1838.021</ele>
        <time>2025-06-14T10:10:25Z</time>
      </trkpt>
      <trkpt lat="43.094192007556558" lon="-5.36926100961864">
        <ele>1843.009</ele>
        <time>2025-06-14T10:10:51Z</time>
      </trkpt>
      <trkpt lat="43.094350006431341" lon="-5.369389001280069">
        <ele>1847.0360000000001</ele>
        <time>2025-06-14T10:11:40Z</time>
      </trkpt>
      <trkpt lat="43.094511022791266" lon="-5.369505006819964">
        <ele>1851.0450000000001</ele>
        <time>2025-06-14T10:12:32Z</time>
      </trkpt>
      <trkpt lat="43.094680001959205" lon="-5.369610032066703">
        <ele>1852.0820000000001</ele>
        <time>2025-06-14T10:13:06Z</time>
      </trkpt>
      <trkpt lat="43.094509011134505" lon="-5.369524033740163">
        <ele>1853.0340000000001</ele>
        <time>2025-06-14T10:21:03Z</time>
      </trkpt>
      <trkpt lat="43.094352018088102" lon="-5.369398975744844">
        <ele>1851.028</ele>
        <time>2025-06-14T10:21:34Z</time>
      </trkpt>
      <trkpt lat="43.094191001728177" lon="-5.369282970204949">
        <ele>1846.0650000000001</ele>
        <time>2025-06-14T10:21:57Z</time>
      </trkpt>
      <trkpt lat="43.094034008681774" lon="-5.369147015735507">
        <ele>1842.1469999999999</ele>
        <time>2025-06-14T10:22:21Z</time>
      </trkpt>
      <trkpt lat="43.093973994255066" lon="-5.368908969685435">
        <ele>1839.0899999999999</ele>
        <time>2025-06-14T10:22:49Z</time>
      </trkpt>
      <trkpt lat="43.093941975384951" lon="-5.368662038818002">
        <ele>1831.123</ele>
        <time>2025-06-14T10:23:24Z</time>
      </trkpt>
      <trkpt lat="43.093794034793973" lon="-5.368516026064754">
        <ele>1822.3320000000001</ele>
        <time>2025-06-14T10:24:02Z</time>
      </trkpt>
      <trkpt lat="43.093669982627034" lon="-5.368331037461758">
        <ele>1816.3920000000001</ele>
        <time>2025-06-14T10:24:30Z</time>
      </trkpt>
      <trkpt lat="43.093550959601998" lon="-5.368532035499811">
        <ele>1809.011</ele>
        <time>2025-06-14T10:29:38Z</time>
      </trkpt>
      <trkpt lat="43.093459010124207" lon="-5.368755999952555">
        <ele>1807.1089999999999</ele>
        <time>2025-06-14T10:30:00Z</time>
      </trkpt>
      <trkpt lat="43.093344010412693" lon="-5.368947023525834">
        <ele>1804.3150000000001</ele>
        <time>2025-06-14T10:30:30Z</time>
      </trkpt>
      <trkpt lat="43.093221969902515" lon="-5.369137041270733">
        <ele>1798.154</ele>
        <time>2025-06-14T10:31:06Z</time>
      </trkpt>
      <trkpt lat="43.093062965199351" lon="-5.36926100961864">
        <ele>1793.0309999999999</ele>
        <time>2025-06-14T10:31:33Z</time>
      </trkpt>
      <trkpt lat="43.092989036813378" lon="-5.36949603818357">
        <ele>1784.0830000000001</ele>
        <time>2025-06-14T10:32:14Z</time>
      </trkpt>
      <trkpt lat="43.092847969383001" lon="-5.369658982381225">
        <ele>1778.1969999999999</ele>
        <time>2025-06-14T10:32:44Z</time>
      </trkpt>
      <trkpt lat="43.092697011306882" lon="-5.369809018447995">
        <ele>1773.354</ele>
        <time>2025-06-14T10:33:09Z</time>
      </trkpt>
      <trkpt lat="43.092572037130594" lon="-5.36999199539423">
        <ele>1771.136</ele>
        <time>2025-06-14T10:33:31Z</time>
      </trkpt>
      <trkpt lat="43.092417977750301" lon="-5.37014102563262">
        <ele>1764.769</ele>
        <time>2025-06-14T10:34:28Z</time>
      </trkpt>
      <trkpt lat="43.09224396944046" lon="-5.370216965675354">
        <ele>1759.0419999999999</ele>
        <time>2025-06-14T10:35:04Z</time>
      </trkpt>
      <trkpt lat="43.092115977779031" lon="-5.37039902061224">
        <ele>1752.077</ele>
        <time>2025-06-14T10:35:51Z</time>
      </trkpt>
      <trkpt lat="43.092011958360672" lon="-5.370603036135435">
        <ele>1754.761</ele>
        <time>2025-06-14T10:36:46Z</time>
      </trkpt>
      <trkpt lat="43.091897964477539" lon="-5.370794981718063">
        <ele>1762.7270000000001</ele>
        <time>2025-06-14T10:37:36Z</time>
      </trkpt>
      <trkpt lat="43.091757986694574" lon="-5.370953986421228">
        <ele>1765.009</ele>
        <time>2025-06-14T10:38:04Z</time>
      </trkpt>
      <trkpt lat="43.091699983924627" lon="-5.371188009157777">
        <ele>1769.029</ele>
        <time>2025-06-14T10:38:43Z</time>
      </trkpt>
      <trkpt lat="43.091625971719623" lon="-5.371415996924043">
        <ele>1772.298</ele>
        <time>2025-06-14T10:39:17Z</time>
      </trkpt>
      <trkpt lat="43.09159797616303" lon="-5.371662005782127">
        <ele>1773.0350000000001</ele>
        <time>2025-06-14T10:39:55Z</time>
      </trkpt>
      <trkpt lat="43.091448023915291" lon="-5.371803995221853">
        <ele>1777.9670000000001</ele>
        <time>2025-06-14T10:41:28Z</time>
      </trkpt>
      <trkpt lat="43.091465039178729" lon="-5.372056039050221">
        <ele>1782.0709999999999</ele>
        <time>2025-06-14T10:43:58Z</time>
      </trkpt>
      <trkpt lat="43.091420028358698" lon="-5.372298024594784">
        <ele>1792.018</ele>
        <time>2025-06-14T10:46:26Z</time>
      </trkpt>
      <trkpt lat="43.091283990070224" lon="-5.372470021247864">
        <ele>1807.4400000000001</ele>
        <time>2025-06-14T10:47:58Z</time>
      </trkpt>
      <trkpt lat="43.091214001178741" lon="-5.37271804176271">
        <ele>1820.7929999999999</ele>
        <time>2025-06-14T10:52:19Z</time>
      </trkpt>
      <trkpt lat="43.091133031994104" lon="-5.372941000387073">
        <ele>1833.0160000000001</ele>
        <time>2025-06-14T10:53:53Z</time>
      </trkpt>
      <trkpt lat="43.091062037274241" lon="-5.37317200563848">
        <ele>1842.7729999999999</ele>
        <time>2025-06-14T10:55:02Z</time>
      </trkpt>
      <trkpt lat="43.091040998697281" lon="-5.373419020324945">
        <ele>1850.085</ele>
        <time>2025-06-14T10:56:57Z</time>
      </trkpt>
      <trkpt lat="43.091014008969069" lon="-5.373669974505901">
        <ele>1851.913</ele>
        <time>2025-06-14T10:57:29Z</time>
      </trkpt>
      <trkpt lat="43.091034041717649" lon="-5.373920006677508">
        <ele>1857.4090000000001</ele>
        <time>2025-06-14T10:58:19Z</time>
      </trkpt>
      <trkpt lat="43.09110201895237" lon="-5.374149000272155">
        <ele>1861.049</ele>
        <time>2025-06-14T10:59:12Z</time>
      </trkpt>
      <trkpt lat="43.091154992580414" lon="-5.374394003301859">
        <ele>1868.7380000000001</ele>
        <time>2025-06-14T11:00:01Z</time>
      </trkpt>
      <trkpt lat="43.091152980923653" lon="-5.374641017988324">
        <ele>1878.165</ele>
        <time>2025-06-14T11:16:16Z</time>
      </trkpt>
      <trkpt lat="43.090993976220489" lon="-5.374758029356599">
        <ele>1872.097</ele>
        <time>2025-06-14T11:16:44Z</time>
      </trkpt>
      <trkpt lat="43.090829020366073" lon="-5.374862970784307">
        <ele>1867.8910000000001</ele>
        <time>2025-06-14T11:17:11Z</time>
      </trkpt>
      <trkpt lat="43.090668004006147" lon="-5.374999009072781">
        <ele>1863.1479999999999</ele>
        <time>2025-06-14T11:17:39Z</time>
      </trkpt>
      <trkpt lat="43.090487960726023" lon="-5.37506296299398">
        <ele>1859.03</ele>
        <time>2025-06-14T11:18:06Z</time>
      </trkpt>
      <trkpt lat="43.090323004871607" lon="-5.375191038474441">
        <ele>1854.0229999999999</ele>
        <time>2025-06-14T11:18:36Z</time>
      </trkpt>
      <trkpt lat="43.090140027925372" lon="-5.37523596547544">
        <ele>1847.346</ele>
        <time>2025-06-14T11:19:04Z</time>
      </trkpt>
      <trkpt lat="43.089976999908686" lon="-5.375346019864082">
        <ele>1842.1559999999999</ele>
        <time>2025-06-14T11:19:29Z</time>
      </trkpt>
      <trkpt lat="43.08983601629734" lon="-5.375502007082105">
        <ele>1840.1590000000001</ele>
        <time>2025-06-14T11:21:09Z</time>
      </trkpt>
      <trkpt lat="43.089717999100685" lon="-5.375697975978255">
        <ele>1843.0139999999999</ele>
        <time>2025-06-14T11:21:53Z</time>
      </trkpt>
      <trkpt lat="43.089613979682326" lon="-5.375901991501451">
        <ele>1849.009</ele>
        <time>2025-06-14T11:22:26Z</time>
      </trkpt>
      <trkpt lat="43.089564023539424" lon="-5.376143977046013">
        <ele>1853.777</ele>
        <time>2025-06-14T11:23:03Z</time>
      </trkpt>
      <trkpt lat="43.089429996907711" lon="-5.376318991184235">
        <ele>1854.056</ele>
        <time>2025-06-14T11:30:16Z</time>
      </trkpt>
      <trkpt lat="43.089260011911392" lon="-5.376424016430974">
        <ele>1847.153</ele>
        <time>2025-06-14T11:30:59Z</time>
      </trkpt>
      <trkpt lat="43.089082986116409" lon="-5.376476990059018">
        <ele>1841.0550000000001</ele>
        <time>2025-06-14T11:31:36Z</time>
      </trkpt>
      <trkpt lat="43.088901014998555" lon="-5.376530969515443">
        <ele>1837.0889999999999</ele>
        <time>2025-06-14T11:32:48Z</time>
      </trkpt>
      <trkpt lat="43.088718960061669" lon="-5.376572962850332">
        <ele>1833.1859999999999</ele>
        <time>2025-06-14T11:33:38Z</time>
      </trkpt>
      <trkpt lat="43.088537994772196" lon="-5.376603975892067">
        <ele>1830.048</ele>
        <time>2025-06-14T11:34:05Z</time>
      </trkpt>
      <trkpt lat="43.088354011997581" lon="-5.376642029732466">
        <ele>1825.3810000000001</ele>
        <time>2025-06-14T11:34:28Z</time>
      </trkpt>
      <trkpt lat="43.088215040042996" lon="-5.376798016950488">
        <ele>1822.0139999999999</ele>
        <time>2025-06-14T11:35:04Z</time>
      </trkpt>
      <trkpt lat="43.088085036724806" lon="-5.376977976411581">
        <ele>1819.078</ele>
        <time>2025-06-14T11:35:26Z</time>
      </trkpt>
      <trkpt lat="43.087968025356531" lon="-5.377174029126763">
        <ele>1817.7329999999999</ele>
        <time>2025-06-14T11:39:22Z</time>
      </trkpt>
      <trkpt lat="43.08783701620996" lon="-5.377364968881011">
        <ele>1821.4259999999999</ele>
        <time>2025-06-14T11:40:01Z</time>
      </trkpt>
      <trkpt lat="43.087724028155208" lon="-5.377573007717729">
        <ele>1829.7090000000001</ele>
        <time>2025-06-14T11:41:11Z</time>
      </trkpt>
      <trkpt lat="43.087551025673747" lon="-5.377646014094353">
        <ele>1834.0889999999999</ele>
        <time>2025-06-14T11:42:01Z</time>
      </trkpt>
      <trkpt lat="43.087582038715482" lon="-5.377895040437579">
        <ele>1840.028</ele>
        <time>2025-06-14T11:43:23Z</time>
      </trkpt>
      <trkpt lat="43.087635012343526" lon="-5.378145994618535">
        <ele>1844.7950000000001</ele>
        <time>2025-06-14T11:44:19Z</time>
      </trkpt>
      <trkpt lat="43.087694020941854" lon="-5.378379011526704">
        <ele>1852.047</ele>
        <time>2025-06-14T11:45:19Z</time>
      </trkpt>
      <trkpt lat="43.087755041196942" lon="-5.378620997071266">
        <ele>1859.0909999999999</ele>
        <time>2025-06-14T11:47:05Z</time>
      </trkpt>
      <trkpt lat="43.087808014824986" lon="-5.37886499427259">
        <ele>1867.088</ele>
        <time>2025-06-14T11:48:00Z</time>
      </trkpt>
      <trkpt lat="43.087843973189592" lon="-5.379108991473913">
        <ele>1873.98</ele>
        <time>2025-06-14T11:48:59Z</time>
      </trkpt>
      <trkpt lat="43.087871968746185" lon="-5.379357011988759">
        <ele>1883.0830000000001</ele>
        <time>2025-06-14T11:50:15Z</time>
      </trkpt>
      <trkpt lat="43.08785998262465" lon="-5.379604026675224">
        <ele>1887.9459999999999</ele>
        <time>2025-06-14T11:51:12Z</time>
      </trkpt>
      <trkpt lat="43.087815977632999" lon="-5.379844000563026">
        <ele>1892.077</ele>
        <time>2025-06-14T11:51:53Z</time>
      </trkpt>
      <trkpt lat="43.087797034531832" lon="-5.38009000942111">
        <ele>1898.0609999999999</ele>
        <time>2025-06-14T11:52:44Z</time>
      </trkpt>
      <trkpt lat="43.087782030925155" lon="-5.380340041592717">
        <ele>1901.027</ele>
        <time>2025-06-14T11:53:26Z</time>
      </trkpt>
      <trkpt lat="43.087771972641349" lon="-5.380595019087195">
        <ele>1904.009</ele>
        <time>2025-06-14T11:53:54Z</time>
      </trkpt>
      <trkpt lat="43.087757974863052" lon="-5.380852008238435">
        <ele>1906.039</ele>
        <time>2025-06-14T11:54:18Z</time>
      </trkpt>
      <trkpt lat="43.087728973478079" lon="-5.381100028753281">
        <ele>1907.048</ele>
        <time>2025-06-14T11:54:41Z</time>
      </trkpt>
      <trkpt lat="43.087656972929835" lon="-5.381331034004688">
        <ele>1908.085</ele>
        <time>2025-06-14T11:55:05Z</time>
      </trkpt>
      <trkpt lat="43.08755898848176" lon="-5.381548041477799">
        <ele>1909.057</ele>
        <time>2025-06-14T11:55:36Z</time>
      </trkpt>
      <trkpt lat="43.087487993761897" lon="-5.381778962910175">
        <ele>1910.0809999999999</ele>
        <time>2025-06-14T11:56:01Z</time>
      </trkpt>
      <trkpt lat="43.087394032627344" lon="-5.381998987868428">
        <ele>1912.058</ele>
        <time>2025-06-14T11:56:29Z</time>
      </trkpt>
      <trkpt lat="43.087318008765578" lon="-5.382226975634694">
        <ele>1915.72</ele>
        <time>2025-06-14T11:57:11Z</time>
      </trkpt>
      <trkpt lat="43.087223041802645" lon="-5.382437026128173">
        <ele>1918.0730000000001</ele>
        <time>2025-06-14T11:57:40Z</time>
      </trkpt>
      <trkpt lat="43.087186999619007" lon="-5.382681023329496">
        <ele>1923.096</ele>
        <time>2025-06-14T11:58:19Z</time>
      </trkpt>
      <trkpt lat="43.08710896410048" lon="-5.382971959188581">
        <ele>1905.8440000000001</ele>
        <time>2020-06-22T13:46:50Z</time>
      </trkpt>
      <trkpt lat="43.08693596161902" lon="-5.383083019405603">
        <ele>1903.268</ele>
        <time>2020-06-22T13:47:24Z</time>
      </trkpt>
      <trkpt lat="43.086780980229378" lon="-5.383230959996581">
        <ele>1898.7339999999999</ele>
        <time>2020-06-22T13:47:53Z</time>
      </trkpt>
      <trkpt lat="43.086692970246077" lon="-5.383455008268356">
        <ele>1891.6780000000001</ele>
        <time>2020-06-22T13:48:39Z</time>
      </trkpt>
      <trkpt lat="43.086546035483479" lon="-5.383627004921436">
        <ele>1884.2719999999999</ele>
        <time>2020-06-22T13:49:12Z</time>
      </trkpt>
      <trkpt lat="43.086432963609695" lon="-5.383844012394548">
        <ele>1877.193</ele>
        <time>2020-06-22T13:49:38Z</time>
      </trkpt>
      <trkpt lat="43.086302960291505" lon="-5.38406697101891">
        <ele>1869.8240000000001</ele>
        <time>2020-06-22T13:50:08Z</time>
      </trkpt>
      <trkpt lat="43.08611897751689" lon="-5.384163027629256">
        <ele>1861.838</ele>
        <time>2020-06-22T13:50:45Z</time>
      </trkpt>
      <trkpt lat="43.085970031097531" lon="-5.384305017068982">
        <ele>1854.8869999999999</ele>
        <time>2020-06-22T13:51:10Z</time>
      </trkpt>
      <trkpt lat="43.085814965888858" lon="-5.384456980973482">
        <ele>1845.193</ele>
        <time>2020-06-22T13:51:40Z</time>
      </trkpt>
      <trkpt lat="43.085610028356314" lon="-5.384572986513376">
        <ele>1833.4570000000001</ele>
        <time>2020-06-22T13:52:18Z</time>
      </trkpt>
      <trkpt lat="43.085434008389711" lon="-5.384650016203523">
        <ele>1822.9369999999999</ele>
        <time>2020-06-22T13:52:52Z</time>
      </trkpt>
      <trkpt lat="43.08510803617537" lon="-5.384841039776802">
        <ele>1805.6420000000001</ele>
        <time>2020-06-22T13:53:49Z</time>
      </trkpt>
      <trkpt lat="43.084969986230135" lon="-5.385057041421533">
        <ele>1798.579</ele>
        <time>2020-06-22T13:53:59Z</time>
      </trkpt>
      <trkpt lat="43.08480997569859" lon="-5.385235995054245">
        <ele>1794.982</ele>
        <time>2020-06-22T13:56:41Z</time>
      </trkpt>
      <trkpt lat="43.084674021229148" lon="-5.385433975607157">
        <ele>1791.1859999999999</ele>
        <time>2020-06-22T13:57:00Z</time>
      </trkpt>
      <trkpt lat="43.084544017910957" lon="-5.385648971423507">
        <ele>1787.3820000000001</ele>
        <time>2020-06-22T13:57:16Z</time>
      </trkpt>
      <trkpt lat="43.084420971572399" lon="-5.385865978896618">
        <ele>1781.7329999999999</ele>
        <time>2020-06-22T13:57:35Z</time>
      </trkpt>
      <trkpt lat="43.084306977689266" lon="-5.386091032996774">
        <ele>1776.9570000000001</ele>
        <time>2020-06-22T13:58:15Z</time>
      </trkpt>
      <trkpt lat="43.084194995462894" lon="-5.386322038248181">
        <ele>1775.5170000000001</ele>
        <time>2020-06-22T13:58:31Z</time>
      </trkpt>
      <trkpt lat="43.084092987701297" lon="-5.386553965508938">
        <ele>1773.566</ele>
        <time>2020-06-22T13:58:47Z</time>
      </trkpt>
      <trkpt lat="43.083971031010151" lon="-5.386768961325288">
        <ele>1772.28</ele>
        <time>2020-06-22T13:59:03Z</time>
      </trkpt>
      <trkpt lat="43.083877991884947" lon="-5.387018993496895">
        <ele>1772.3789999999999</ele>
        <time>2020-06-22T13:59:20Z</time>
      </trkpt>
      <trkpt lat="43.083785036578774" lon="-5.387237006798387">
        <ele>1773.1220000000001</ele>
        <time>2020-06-22T13:59:39Z</time>
      </trkpt>
      <trkpt lat="43.08367095887661" lon="-5.387458959594369">
        <ele>1773.2860000000001</ele>
        <time>2020-06-22T13:59:58Z</time>
      </trkpt>
      <trkpt lat="43.083674982190132" lon="-5.387740004807711">
        <ele>1771.654</ele>
        <time>2020-06-22T14:00:17Z</time>
      </trkpt>
      <trkpt lat="43.083507008850574" lon="-5.387846035882831">
        <ele>1774.03</ele>
        <time>2020-06-22T14:00:58Z</time>
      </trkpt>
      <trkpt lat="43.083385974168777" lon="-5.388079974800348">
        <ele>1776.374</ele>
        <time>2020-06-22T14:01:22Z</time>
      </trkpt>
      <trkpt lat="43.083354961127043" lon="-5.388350039720535">
        <ele>1780.768</ele>
        <time>2020-06-22T14:01:59Z</time>
      </trkpt>
      <trkpt lat="43.083222024142742" lon="-5.388754969462752">
        <ele>1790.4449999999999</ele>
        <time>2020-06-22T14:03:18Z</time>
      </trkpt>
      <trkpt lat="43.083190005272627" lon="-5.38922100327909">
        <ele>1801.354</ele>
        <time>2020-06-22T14:04:25Z</time>
      </trkpt>
      <trkpt lat="43.083039969205856" lon="-5.389375984668732">
        <ele>1805.1780000000001</ele>
        <time>2020-06-22T14:04:57Z</time>
      </trkpt>
      <trkpt lat="43.083013985306025" lon="-5.389621993526816">
        <ele>1809.914</ele>
        <time>2020-06-22T14:05:28Z</time>
      </trkpt>
      <trkpt lat="43.082979032769799" lon="-5.38988602347672">
        <ele>1817.2360000000001</ele>
        <time>2020-06-22T14:06:06Z</time>
      </trkpt>
      <trkpt lat="43.08291700668633" lon="-5.390148963779211">
        <ele>1824.6700000000001</ele>
        <time>2020-06-22T14:06:55Z</time>
      </trkpt>
      <trkpt lat="43.082760013639927" lon="-5.390585996210575">
        <ele>1840.4780000000001</ele>
        <time>2020-06-22T14:08:26Z</time>
      </trkpt>
      <trkpt lat="43.082554992288351" lon="-5.39098396897316">
        <ele>1856.9970000000001</ele>
        <time>2020-06-22T14:09:56Z</time>
      </trkpt>
      <trkpt lat="43.082406967878342" lon="-5.391142973676324">
        <ele>1859.5540000000001</ele>
        <time>2020-06-22T14:10:23Z</time>
      </trkpt>
      <trkpt lat="43.082264978438616" lon="-5.391327040269971">
        <ele>1860.2180000000001</ele>
        <time>2020-06-22T14:10:46Z</time>
      </trkpt>
      <trkpt lat="43.081977982074022" lon="-5.391651000827551">
        <ele>1858.683</ele>
        <time>2020-06-22T14:18:25Z</time>
      </trkpt>
      <trkpt lat="43.081838004291058" lon="-5.391850993037224">
        <ele>1859.357</ele>
        <time>2020-06-22T14:18:46Z</time>
      </trkpt>
      <trkpt lat="43.081689979881048" lon="-5.392003040760756">
        <ele>1861.018</ele>
        <time>2020-06-22T14:19:08Z</time>
      </trkpt>
      <trkpt lat="43.081514965742826" lon="-5.392183000221849">
        <ele>1859.9559999999999</ele>
        <time>2020-06-22T14:19:31Z</time>
      </trkpt>
      <trkpt lat="43.081347998231649" lon="-5.392342004925013">
        <ele>1859.97</ele>
        <time>2020-06-22T14:19:50Z</time>
      </trkpt>
      <trkpt lat="43.081184970214963" lon="-5.392500003799796">
        <ele>1859.1510000000001</ele>
        <time>2020-06-22T14:20:07Z</time>
      </trkpt>
      <trkpt lat="43.081065025180578" lon="-5.392697984352708">
        <ele>1863.6700000000001</ele>
        <time>2020-06-22T14:20:29Z</time>
      </trkpt>
      <trkpt lat="43.080885987728834" lon="-5.39285397157073">
        <ele>1863.0440000000001</ele>
        <time>2020-06-22T14:20:50Z</time>
      </trkpt>
      <trkpt lat="43.080807030200958" lon="-5.393081959336996">
        <ele>1870.0920000000001</ele>
        <time>2020-06-22T14:21:23Z</time>
      </trkpt>
      <trkpt lat="43.080654982477427" lon="-5.393249010667205">
        <ele>1868.8340000000001</ele>
        <time>2020-06-22T14:22:19Z</time>
      </trkpt>
      <trkpt lat="43.080547023564577" lon="-5.393458977341652">
        <ele>1869.6279999999999</ele>
        <time>2020-06-22T14:22:39Z</time>
      </trkpt>
      <trkpt lat="43.080454990267754" lon="-5.393708003684878">
        <ele>1870.316</ele>
        <time>2020-06-22T14:22:59Z</time>
      </trkpt>
      <trkpt lat="43.080387013033032" lon="-5.393957030028105">
        <ele>1868.896</ele>
        <time>2020-06-22T14:23:17Z</time>
      </trkpt>
      <trkpt lat="43.080319035798311" lon="-5.394188035279512">
        <ele>1869.29</ele>
        <time>2020-06-22T14:24:31Z</time>
      </trkpt>
      <trkpt lat="43.080228008329868" lon="-5.394411999732256">
        <ele>1862.8979999999999</ele>
        <time>2020-06-22T14:24:53Z</time>
      </trkpt>
      <trkpt lat="43.080164976418018" lon="-5.394653985276818">
        <ele>1859.114</ele>
        <time>2020-06-22T14:25:24Z</time>
      </trkpt>
      <trkpt lat="43.080063974484801" lon="-5.394898988306522">
        <ele>1854.3979999999999</ele>
        <time>2020-06-22T14:25:44Z</time>
      </trkpt>
      <trkpt lat="43.07995199225843" lon="-5.395135022699833">
        <ele>1847.192</ele>
        <time>2020-06-22T14:26:19Z</time>
      </trkpt>
      <trkpt lat="43.079921985045075" lon="-5.395406009629369">
        <ele>1842.654</ele>
        <time>2020-06-22T14:26:42Z</time>
      </trkpt>
      <trkpt lat="43.079832969233394" lon="-5.395646989345551">
        <ele>1841.6279999999999</ele>
        <time>2020-06-22T14:27:04Z</time>
      </trkpt>
      <trkpt lat="43.079782007262111" lon="-5.395897021517158">
        <ele>1839.5319999999999</ele>
        <time>2020-06-22T14:27:26Z</time>
      </trkpt>
      <trkpt lat="43.079783013090491" lon="-5.396145964041352">
        <ele>1845.3779999999999</ele>
        <time>2020-06-22T14:27:59Z</time>
      </trkpt>
      <trkpt lat="43.079796005040407" lon="-5.396406976506114">
        <ele>1847.0519999999999</ele>
        <time>2020-06-22T14:28:26Z</time>
      </trkpt>
      <trkpt lat="43.079787036404014" lon="-5.396682992577553">
        <ele>1840.9780000000001</ele>
        <time>2020-06-22T14:28:57Z</time>
      </trkpt>
      <trkpt lat="43.079796005040407" lon="-5.396958002820611">
        <ele>1838.5219999999999</ele>
        <time>2020-06-22T14:29:20Z</time>
      </trkpt>
      <trkpt lat="43.079831963405013" lon="-5.397237036377192">
        <ele>1837.296</ele>
        <time>2020-06-22T14:29:41Z</time>
      </trkpt>
      <trkpt lat="43.079861970618367" lon="-5.397497965022922">
        <ele>1835.915</ele>
        <time>2020-06-22T14:29:59Z</time>
      </trkpt>
      <trkpt lat="43.079878985881805" lon="-5.397743973881006">
        <ele>1834.2560000000001</ele>
        <time>2020-06-22T14:30:20Z</time>
      </trkpt>
      <trkpt lat="43.079923996701837" lon="-5.39798503741622">
        <ele>1836.98</ele>
        <time>2020-06-22T14:30:45Z</time>
      </trkpt>
      <trkpt lat="43.080050982534885" lon="-5.398228028789163">
        <ele>1840.9749999999999</ele>
        <time>2020-06-22T14:31:31Z</time>
      </trkpt>
      <trkpt lat="43.080130023881793" lon="-5.398473031818867">
        <ele>1846.1079999999999</ele>
        <time>2020-06-22T14:32:17Z</time>
      </trkpt>
      <trkpt lat="43.080219961702824" lon="-5.398720968514681">
        <ele>1851.5830000000001</ele>
        <time>2020-06-22T14:33:12Z</time>
      </trkpt>
      <trkpt lat="43.080302020534873" lon="-5.398963959887624">
        <ele>1858.9860000000001</ele>
        <time>2020-06-22T14:34:00Z</time>
      </trkpt>
      <trkpt lat="43.080275030806661" lon="-5.399248022586107">
        <ele>1861.0170000000001</ele>
        <time>2020-06-22T14:34:53Z</time>
      </trkpt>
      <trkpt lat="43.080390030518174" lon="-5.399547005072236">
        <ele>1869.288</ele>
        <time>2020-06-22T14:35:57Z</time>
      </trkpt>
      <trkpt lat="43.080608965829015" lon="-5.399863002821803">
        <ele>1886.3199999999999</ele>
        <time>2020-06-22T14:37:43Z</time>
      </trkpt>
      <trkpt lat="43.080772999674082" lon="-5.400305986404419">
        <ele>1897.4690000000001</ele>
        <time>2020-06-22T14:38:56Z</time>
      </trkpt>
      <trkpt lat="43.080713991075754" lon="-5.400703959167004">
        <ele>1895.789</ele>
        <time>2020-06-22T15:04:12Z</time>
      </trkpt>
      <trkpt lat="43.080607037991285" lon="-5.400918032974005">
        <ele>1893.6379999999999</ele>
        <time>2020-06-22T15:04:39Z</time>
      </trkpt>
      <trkpt lat="43.080503018572927" lon="-5.401158006861806">
        <ele>1888.617</ele>
        <time>2020-06-22T15:05:00Z</time>
      </trkpt>
      <trkpt lat="43.080374021083117" lon="-5.401362022385001">
        <ele>1883.2529999999999</ele>
        <time>2020-06-22T15:05:20Z</time>
      </trkpt>
      <trkpt lat="43.080261033028364" lon="-5.401561008766294">
        <ele>1878.3820000000001</ele>
        <time>2020-06-22T15:05:39Z</time>
      </trkpt>
      <trkpt lat="43.080155001953244" lon="-5.401788996532559">
        <ele>1873.8109999999999</ele>
        <time>2020-06-22T15:06:09Z</time>
      </trkpt>
      <trkpt lat="43.080072021111846" lon="-5.402036011219025">
        <ele>1869.5799999999999</ele>
        <time>2020-06-22T15:06:38Z</time>
      </trkpt>
      <trkpt lat="43.079961966723204" lon="-5.402243966236711">
        <ele>1866.5889999999999</ele>
        <time>2020-06-22T15:07:00Z</time>
      </trkpt>
      <trkpt lat="43.079830035567284" lon="-5.4025639872998">
        <ele>1862.384</ele>
        <time>2020-06-22T15:12:42Z</time>
      </trkpt>
      <trkpt lat="43.079719981178641" lon="-5.402759034186602">
        <ele>1862.788</ele>
        <time>2020-06-22T15:13:03Z</time>
      </trkpt>
      <trkpt lat="43.079615961760283" lon="-5.403000013902783">
        <ele>1862.7860000000001</ele>
        <time>2020-06-22T15:13:25Z</time>
      </trkpt>
      <trkpt lat="43.079533986747265" lon="-5.403250968083739">
        <ele>1864.2729999999999</ele>
        <time>2020-06-22T15:13:49Z</time>
      </trkpt>
      <trkpt lat="43.079423010349274" lon="-5.403460012748838">
        <ele>1869.537</ele>
        <time>2020-06-22T15:14:26Z</time>
      </trkpt>
      <trkpt lat="43.079327959567308" lon="-5.403690012171865">
        <ele>1873.9860000000001</ele>
        <time>2020-06-22T15:14:58Z</time>
      </trkpt>
      <trkpt lat="43.079224023967981" lon="-5.404139030724764">
        <ele>1882.857</ele>
        <time>2020-06-22T15:16:10Z</time>
      </trkpt>
      <trkpt lat="43.079255959019065" lon="-5.40438998490572">
        <ele>1883.934</ele>
        <time>2020-06-22T15:16:33Z</time>
      </trkpt>
      <trkpt lat="43.079235004261136" lon="-5.404657032340765">
        <ele>1889.6379999999999</ele>
        <time>2020-06-22T15:17:38Z</time>
      </trkpt>
      <trkpt lat="43.079281020909548" lon="-5.404915027320385">
        <ele>1898.5519999999999</ele>
        <time>2020-06-22T15:18:23Z</time>
      </trkpt>
      <trkpt lat="43.079223018139601" lon="-5.405426993966103">
        <ele>1909.6189999999999</ele>
        <time>2020-06-22T15:19:49Z</time>
      </trkpt>
      <trkpt lat="43.078987989574671" lon="-5.405151983723044">
        <ele>1932.4749999999999</ele>
        <time>2020-06-22T15:24:13Z</time>
      </trkpt>
      <trkpt lat="43.078830996528268" lon="-5.405459012836218">
        <ele>1958.3879999999999</ele>
        <time>2020-06-22T15:34:36Z</time>
      </trkpt>
      <trkpt lat="43.078719014301896" lon="-5.405659005045891">
        <ele>1970.931</ele>
        <time>2020-06-22T15:35:59Z</time>
      </trkpt>
      <trkpt lat="43.078735023736954" lon="-5.405953964218497">
        <ele>1978.1079999999999</ele>
        <time>2020-06-22T15:37:02Z</time>
      </trkpt>
      <trkpt lat="43.078723037615418" lon="-5.406225034967065">
        <ele>1987.9169999999999</ele>
        <time>2020-06-22T15:38:24Z</time>
      </trkpt>
      <trkpt lat="43.078551040962338" lon="-5.406566010788083">
        <ele>2011.4079999999999</ele>
        <time>2020-06-22T15:41:15Z</time>
      </trkpt>
      <trkpt lat="43.078600997105241" lon="-5.406813025474548">
        <ele>2017.692</ele>
        <time>2020-06-22T15:42:15Z</time>
      </trkpt>
      <trkpt lat="43.078585993498564" lon="-5.407084012404084">
        <ele>2019.885</ele>
        <time>2020-06-22T15:42:43Z</time>
      </trkpt>
      <trkpt lat="43.078511981293559" lon="-5.40733203291893">
        <ele>2027.6079999999999</ele>
        <time>2020-06-22T15:43:41Z</time>
      </trkpt>
      <trkpt lat="43.078479962423444" lon="-5.407580975443125">
        <ele>2038.596</ele>
        <time>2020-06-22T15:44:42Z</time>
      </trkpt>
      <trkpt lat="43.078327998518944" lon="-5.407779961824417">
        <ele>2055.2809999999999</ele>
        <time>2020-06-22T15:46:36Z</time>
      </trkpt>
      <trkpt lat="43.078480968251824" lon="-5.407945001497865">
        <ele>2049.7429999999999</ele>
        <time>2020-06-22T15:53:46Z</time>
      </trkpt>
      <trkpt lat="43.078535031527281" lon="-5.408193022012711">
        <ele>2055.4169999999999</ele>
        <time>2020-06-22T15:54:22Z</time>
      </trkpt>
      <trkpt lat="43.078291034325957" lon="-5.408551013097167">
        <ele>2076.4499999999998</ele>
        <time>2020-06-22T16:02:26Z</time>
      </trkpt>
      <trkpt lat="43.078485997393727" lon="-5.408339034765959">
        <ele>2068.3449999999998</ele>
        <time>2020-06-22T16:16:11Z</time>
      </trkpt>
      <trkpt lat="43.078686995431781" lon="-5.408356972038746">
        <ele>2054.7190000000001</ele>
        <time>2020-06-22T16:17:21Z</time>
      </trkpt>
      <trkpt lat="43.078686995431781" lon="-5.408717980608344">
        <ele>2039.1320000000001</ele>
        <time>2020-06-22T16:19:16Z</time>
      </trkpt>
      <trkpt lat="43.078756984323263" lon="-5.409174961969256">
        <ele>2013.8219999999999</ele>
        <time>2020-06-22T16:21:04Z</time>
      </trkpt>
      <trkpt lat="43.078720020130277" lon="-5.409433962777257">
        <ele>2002.2449999999999</ele>
        <time>2020-06-22T16:21:46Z</time>
      </trkpt>
      <trkpt lat="43.078735023736954" lon="-5.409705033525825">
        <ele>1990.779</ele>
        <time>2020-06-22T16:22:42Z</time>
      </trkpt>
      <trkpt lat="43.078738041222095" lon="-5.40997602045536">
        <ele>1982.393</ele>
        <time>2020-06-22T16:23:06Z</time>
      </trkpt>
      <trkpt lat="43.078660005703568" lon="-5.410209959372878">
        <ele>1981.722</ele>
        <time>2020-06-22T16:23:32Z</time>
      </trkpt>
      <trkpt lat="43.078563027083874" lon="-5.410434007644653">
        <ele>1983.847</ele>
        <time>2020-06-22T16:23:57Z</time>
      </trkpt>
      <trkpt lat="43.078483985736966" lon="-5.410682028159499">
        <ele>1983.751</ele>
        <time>2020-06-22T16:24:19Z</time>
      </trkpt>
      <trkpt lat="43.078406034037471" lon="-5.410940023139119">
        <ele>1984.3430000000001</ele>
        <time>2020-06-22T16:24:41Z</time>
      </trkpt>
      <trkpt lat="43.078345013782382" lon="-5.411207992583513">
        <ele>1985.319</ele>
        <time>2020-06-22T16:25:06Z</time>
      </trkpt>
      <trkpt lat="43.078286005184054" lon="-5.41145802475512">
        <ele>1984.953</ele>
        <time>2020-06-22T16:25:29Z</time>
      </trkpt>
      <trkpt lat="43.078224984928966" lon="-5.411729011684656">
        <ele>1982.8979999999999</ele>
        <time>2020-06-22T16:25:50Z</time>
      </trkpt>
      <trkpt lat="43.078124988824129" lon="-5.411975020542741">
        <ele>1979.5840000000001</ele>
        <time>2020-06-22T16:26:11Z</time>
      </trkpt>
      <trkpt lat="43.078183997422457" lon="-5.41242303326726">
        <ele>1969.982</ele>
        <time>2020-06-22T16:26:51Z</time>
      </trkpt>
      <trkpt lat="43.077999008819461" lon="-5.41257600300014">
        <ele>1963.047</ele>
        <time>2020-06-22T16:27:30Z</time>
      </trkpt>
      <trkpt lat="43.07780496776104" lon="-5.412527974694967">
        <ele>1960.2660000000001</ele>
        <time>2020-06-22T16:27:53Z</time>
      </trkpt>
      <trkpt lat="43.077608998864889" lon="-5.412452034652233">
        <ele>1950.5909999999999</ele>
        <time>2020-06-22T16:29:05Z</time>
      </trkpt>
      <trkpt lat="43.07722401805222" lon="-5.412538032978773">
        <ele>1926.847</ele>
        <time>2020-06-22T16:31:59Z</time>
      </trkpt>
      <trkpt lat="43.077076999470592" lon="-5.41270399466157">
        <ele>1916.9390000000001</ele>
        <time>2020-06-22T16:32:26Z</time>
      </trkpt>
      <trkpt lat="43.076755972579122" lon="-5.412671975791454">
        <ele>1901.482</ele>
        <time>2020-06-22T16:33:25Z</time>
      </trkpt>
      <trkpt lat="43.076676009222865" lon="-5.412437031045556">
        <ele>1897.0930000000001</ele>
        <time>2020-06-22T16:33:51Z</time>
      </trkpt>
      <trkpt lat="43.076626975089312" lon="-5.412196973338723">
        <ele>1888.087</ele>
        <time>2020-06-22T16:34:09Z</time>
      </trkpt>
      <trkpt lat="43.076583975926042" lon="-5.411954987794161">
        <ele>1879.434</ele>
        <time>2020-06-22T16:34:29Z</time>
      </trkpt>
      <trkpt lat="43.076608031988144" lon="-5.41169498115778">
        <ele>1874.9480000000001</ele>
        <time>2020-06-22T16:36:33Z</time>
      </trkpt>
      <trkpt lat="43.076628986746073" lon="-5.411409996449947">
        <ele>1870.662</ele>
        <time>2020-06-22T16:36:45Z</time>
      </trkpt>
      <trkpt lat="43.076681960374117" lon="-5.411148983985186">
        <ele>1867.1420000000001</ele>
        <time>2020-06-22T16:36:58Z</time>
      </trkpt>
      <trkpt lat="43.076727977022529" lon="-5.410863999277353">
        <ele>1861.1590000000001</ele>
        <time>2020-06-22T16:37:13Z</time>
      </trkpt>
      <trkpt lat="43.076713979244232" lon="-5.410589994862676">
        <ele>1860.2529999999999</ele>
        <time>2020-06-22T16:37:30Z</time>
      </trkpt>
      <trkpt lat="43.076741974800825" lon="-5.410297969356179">
        <ele>1859.9939999999999</ele>
        <time>2020-06-22T16:37:50Z</time>
      </trkpt>
      <trkpt lat="43.07677298784256" lon="-5.410031005740166">
        <ele>1860.9639999999999</ele>
        <time>2020-06-22T16:38:08Z</time>
      </trkpt>
      <trkpt lat="43.07681598700583" lon="-5.409746021032333">
        <ele>1860.598</ele>
        <time>2020-06-22T16:38:27Z</time>
      </trkpt>
      <trkpt lat="43.076781034469604" lon="-5.409493977203965">
        <ele>1861.259</ele>
        <time>2020-06-22T16:38:49Z</time>
      </trkpt>
      <trkpt lat="43.076718002557755" lon="-5.409247968345881">
        <ele>1859.24</ele>
        <time>2020-06-22T16:39:06Z</time>
      </trkpt>
      <trkpt lat="43.076662011444569" lon="-5.408976981416345">
        <ele>1859.0940000000001</ele>
        <time>2020-06-22T16:39:24Z</time>
      </trkpt>
      <trkpt lat="43.076565032824874" lon="-5.408745976164937">
        <ele>1855.5740000000001</ele>
        <time>2020-06-22T16:39:40Z</time>
      </trkpt>
      <trkpt lat="43.076483979821205" lon="-5.408490998670459">
        <ele>1855.752</ele>
        <time>2020-06-22T16:40:01Z</time>
      </trkpt>
      <trkpt lat="43.076399993151426" lon="-5.408268040046096">
        <ele>1855.896</ele>
        <time>2020-06-22T16:40:20Z</time>
      </trkpt>
      <trkpt lat="43.076295973733068" lon="-5.408047009259462">
        <ele>1853.4349999999999</ele>
        <time>2020-06-22T16:40:41Z</time>
      </trkpt>
      <trkpt lat="43.076248029246926" lon="-5.407788008451462">
        <ele>1857.2280000000001</ele>
        <time>2020-06-22T16:41:59Z</time>
      </trkpt>
      <trkpt lat="43.07612900622189" lon="-5.407573012635112">
        <ele>1860.3720000000001</ele>
        <time>2020-06-22T16:42:23Z</time>
      </trkpt>
      <trkpt lat="43.075965978205204" lon="-5.407401015982032">
        <ele>1859.914</ele>
        <time>2020-06-22T16:42:40Z</time>
      </trkpt>
      <trkpt lat="43.075855001807213" lon="-5.407195994630456">
        <ele>1860.336</ele>
        <time>2020-06-22T16:42:54Z</time>
      </trkpt>
      <trkpt lat="43.075819965451956" lon="-5.406931964680553">
        <ele>1860.55</ele>
        <time>2020-06-22T16:43:10Z</time>
      </trkpt>
      <trkpt lat="43.0758470389992" lon="-5.406482024118304">
        <ele>1857.0039999999999</ele>
        <time>2019-09-26T13:07:59Z</time>
      </trkpt>
      <trkpt lat="43.075859025120735" lon="-5.406228974461556">
        <ele>1850.913</ele>
        <time>2019-09-26T13:08:31Z</time>
      </trkpt>
      <trkpt lat="43.075857013463974" lon="-5.40597902610898">
        <ele>1845.366</ele>
        <time>2019-09-26T13:09:07Z</time>
      </trkpt>
      <trkpt lat="43.076047031208873" lon="-5.405598990619183">
        <ele>1833.7180000000001</ele>
        <time>2019-09-26T13:09:49Z</time>
      </trkpt>
      <trkpt lat="43.076026998460293" lon="-5.405340995639563">
        <ele>1828.9110000000001</ele>
        <time>2019-09-26T13:10:11Z</time>
      </trkpt>
      <trkpt lat="43.07604300789535" lon="-5.405061040073633">
        <ele>1822.3920000000001</ele>
        <time>2019-09-26T13:10:35Z</time>
      </trkpt>
      <trkpt lat="43.076047031208873" lon="-5.404807990416884">
        <ele>1816.8440000000001</ele>
        <time>2019-09-26T13:11:50Z</time>
      </trkpt>
      <trkpt lat="43.076090030372143" lon="-5.404568016529083">
        <ele>1814.2570000000001</ele>
        <time>2019-09-26T13:12:06Z</time>
      </trkpt>
      <trkpt lat="43.076212992891669" lon="-5.404145987704396">
        <ele>1797.713</ele>
        <time>2019-09-26T13:13:06Z</time>
      </trkpt>
      <trkpt lat="43.076260015368462" lon="-5.40389402769506">
        <ele>1786.9559999999999</ele>
        <time>2019-09-26T13:13:30Z</time>
      </trkpt>
      <trkpt lat="43.076253980398178" lon="-5.403627986088395">
        <ele>1777.152</ele>
        <time>2019-09-26T13:13:56Z</time>
      </trkpt>
      <trkpt lat="43.076324975118041" lon="-5.403156001120806">
        <ele>1765.9190000000001</ele>
        <time>2019-09-26T13:15:02Z</time>
      </trkpt>
      <trkpt lat="43.076395969837904" lon="-5.402908986434341">
        <ele>1760.953</ele>
        <time>2019-09-26T13:15:36Z</time>
      </trkpt>
      <trkpt lat="43.076337967067957" lon="-5.402487041428685">
        <ele>1752.779</ele>
        <time>2019-09-26T13:16:23Z</time>
      </trkpt>
      <trkpt lat="43.07653502561152" lon="-5.402064006775618">
        <ele>1744.636</ele>
        <time>2019-09-26T13:17:19Z</time>
      </trkpt>
      <trkpt lat="43.076594034209847" lon="-5.401815986260772">
        <ele>1741.289</ele>
        <time>2019-09-26T13:17:39Z</time>
      </trkpt>
      <trkpt lat="43.076627980917692" lon="-5.401557991281152">
        <ele>1736.5129999999999</ele>
        <time>2019-09-26T13:17:59Z</time>
      </trkpt>
      <trkpt lat="43.076697969809175" lon="-5.401098998263478">
        <ele>1728.251</ele>
        <time>2019-09-26T13:20:39Z</time>
      </trkpt>
      <trkpt lat="43.07675002142787" lon="-5.400663977488875">
        <ele>1725.6900000000001</ele>
        <time>2019-09-26T13:21:22Z</time>
      </trkpt>
      <trkpt lat="43.076740968972445" lon="-5.400400031358004">
        <ele>1725.7329999999999</ele>
        <time>2019-09-26T13:21:50Z</time>
      </trkpt>
      <trkpt lat="43.076668968424201" lon="-5.400151005014777">
        <ele>1726.4469999999999</ele>
        <time>2019-09-26T13:22:09Z</time>
      </trkpt>
      <trkpt lat="43.076624041423202" lon="-5.399895021691918">
        <ele>1727.3630000000001</ele>
        <time>2019-09-26T13:22:30Z</time>
      </trkpt>
      <trkpt lat="43.076543994247913" lon="-5.399668961763382">
        <ele>1729.1559999999999</ele>
        <time>2019-09-26T13:22:48Z</time>
      </trkpt>
      <trkpt lat="43.076413990929723" lon="-5.39949101395905">
        <ele>1729.153</ele>
        <time>2019-09-26T13:23:15Z</time>
      </trkpt>
      <trkpt lat="43.076369985938072" lon="-5.399249028414488">
        <ele>1725.146</ele>
        <time>2019-09-26T13:23:37Z</time>
      </trkpt>
      <trkpt lat="43.076264038681984" lon="-5.399043001234531">
        <ele>1720.1690000000001</ele>
        <time>2019-09-26T13:24:05Z</time>
      </trkpt>
      <trkpt lat="43.076178962364793" lon="-5.398818030953407">
        <ele>1715.059</ele>
        <time>2019-09-26T13:24:28Z</time>
      </trkpt>
      <trkpt lat="43.0762770306319" lon="-5.398350991308689">
        <ele>1707.1389999999999</ele>
        <time>2019-09-26T13:25:08Z</time>
      </trkpt>
      <trkpt lat="43.076250962913036" lon="-5.398088973015547">
        <ele>1702.998</ele>
        <time>2019-09-26T13:25:34Z</time>
      </trkpt>
      <trkpt lat="43.076118025928736" lon="-5.397911025211215">
        <ele>1701.972</ele>
        <time>2019-09-26T13:26:11Z</time>
      </trkpt>
      <trkpt lat="43.076006965711713" lon="-5.397697035223246">
        <ele>1703.4449999999999</ele>
        <time>2019-09-26T13:26:31Z</time>
      </trkpt>
      <trkpt lat="43.075939994305372" lon="-5.397457983344793">
        <ele>1701.665</ele>
        <time>2019-09-26T13:26:52Z</time>
      </trkpt>
      <trkpt lat="43.075851984322071" lon="-5.397228989750147">
        <ele>1698.452</ele>
        <time>2019-09-26T13:27:23Z</time>
      </trkpt>
      <trkpt lat="43.075756011530757" lon="-5.397009970620275">
        <ele>1694.385</ele>
        <time>2019-09-26T13:27:46Z</time>
      </trkpt>
      <trkpt lat="43.075674036517739" lon="-5.396541003137827">
        <ele>1691.3889999999999</ele>
        <time>2019-09-26T13:28:40Z</time>
      </trkpt>
      <trkpt lat="43.075662972405553" lon="-5.396286025643349">
        <ele>1689.692</ele>
        <time>2019-09-26T13:29:12Z</time>
      </trkpt>
      <trkpt lat="43.075636988505721" lon="-5.396029958501458">
        <ele>1690.9290000000001</ele>
        <time>2019-09-26T13:29:38Z</time>
      </trkpt>
      <trkpt lat="43.075588960200548" lon="-5.395770035684109">
        <ele>1687.4970000000001</ele>
        <time>2019-09-26T13:30:22Z</time>
      </trkpt>
      <trkpt lat="43.075459040701389" lon="-5.395595021545887">
        <ele>1683.1400000000001</ele>
        <time>2019-09-26T13:30:43Z</time>
      </trkpt>
      <trkpt lat="43.075364995747805" lon="-5.395368039608002">
        <ele>1681.729</ele>
        <time>2019-09-26T13:31:09Z</time>
      </trkpt>
      <trkpt lat="43.075275979936123" lon="-5.395128987729549">
        <ele>1681.575</ele>
        <time>2019-09-26T13:31:38Z</time>
      </trkpt>
      <trkpt lat="43.075099959969521" lon="-5.395012982189655">
        <ele>1684.2280000000001</ele>
        <time>2019-09-26T13:32:08Z</time>
      </trkpt>
      <trkpt lat="43.074996024370193" lon="-5.394803015515208">
        <ele>1686.1010000000001</ele>
        <time>2019-09-26T13:32:37Z</time>
      </trkpt>
      <trkpt lat="43.074889993295074" lon="-5.394587013870478">
        <ele>1684.644</ele>
        <time>2019-09-26T13:32:57Z</time>
      </trkpt>
      <trkpt lat="43.074818998575211" lon="-5.394341005012393">
        <ele>1682.9970000000001</ele>
        <time>2019-09-26T13:33:22Z</time>
      </trkpt>
      <trkpt lat="43.074825033545494" lon="-5.394059959799051">
        <ele>1680.942</ele>
        <time>2019-09-26T13:33:41Z</time>
      </trkpt>
      <trkpt lat="43.074725959450006" lon="-5.39383901283145">
        <ele>1679.2570000000001</ele>
        <time>2019-09-26T13:33:59Z</time>
      </trkpt>
      <trkpt lat="43.074733000248671" lon="-5.393348000943661">
        <ele>1677.7650000000001</ele>
        <time>2019-09-26T13:34:42Z</time>
      </trkpt>
      <trkpt lat="43.074842970818281" lon="-5.392867969349027">
        <ele>1678.855</ele>
        <time>2019-09-26T13:35:36Z</time>
      </trkpt>
      <trkpt lat="43.074920000508428" lon="-5.392621960490942">
        <ele>1678.6030000000001</ele>
        <time>2019-09-26T13:35:58Z</time>
      </trkpt>
      <trkpt lat="43.074951013550162" lon="-5.392366982996464">
        <ele>1677.7660000000001</ele>
        <time>2019-09-26T13:36:23Z</time>
      </trkpt>
      <trkpt lat="43.074951013550162" lon="-5.392112005501986">
        <ele>1674.1790000000001</ele>
        <time>2019-09-26T13:36:43Z</time>
      </trkpt>
      <trkpt lat="43.074884964153171" lon="-5.391873037442565">
        <ele>1671.5</ele>
        <time>2019-09-26T13:37:15Z</time>
      </trkpt>
      <trkpt lat="43.074898961931467" lon="-5.391614958643913">
        <ele>1667.056</ele>
        <time>2019-09-26T13:37:52Z</time>
      </trkpt>
      <trkpt lat="43.074909020215273" lon="-5.391346989199519">
        <ele>1664.319</ele>
        <time>2019-09-26T13:38:00Z</time>
      </trkpt>
      <trkpt lat="43.074912037700415" lon="-5.391062004491687">
        <ele>1659.473</ele>
        <time>2019-09-26T13:38:26Z</time>
      </trkpt>
      <trkpt lat="43.074882030487061" lon="-5.390796968713403">
        <ele>1659.45</ele>
        <time>2019-09-26T13:38:44Z</time>
      </trkpt>
      <trkpt lat="43.074840037152171" lon="-5.390533022582531">
        <ele>1658.633</ele>
        <time>2019-09-26T13:39:04Z</time>
      </trkpt>
      <trkpt lat="43.074813969433308" lon="-5.390278967097402">
        <ele>1658.6900000000001</ele>
        <time>2019-09-26T13:39:23Z</time>
      </trkpt>
      <trkpt lat="43.074797037988901" lon="-5.390018960461021">
        <ele>1657.9680000000001</ele>
        <time>2019-09-26T13:39:41Z</time>
      </trkpt>
      <trkpt lat="43.074667034670711" lon="-5.389840006828308">
        <ele>1655.681</ele>
        <time>2019-09-26T13:40:01Z</time>
      </trkpt>
      <trkpt lat="43.074526973068714" lon="-5.389668010175228">
        <ele>1654.357</ele>
        <time>2019-09-26T13:40:30Z</time>
      </trkpt>
      <trkpt lat="43.074203012511134" lon="-5.389601960778236">
        <ele>1650.9829999999999</ele>
        <time>2019-09-26T13:41:12Z</time>
      </trkpt>
      <trkpt lat="43.074027998372912" lon="-5.389489978551865">
        <ele>1646.807</ele>
        <time>2019-09-26T13:41:30Z</time>
      </trkpt>
      <trkpt lat="43.073702026158571" lon="-5.389270959421992">
        <ele>1641.9929999999999</ele>
        <time>2019-09-26T13:42:03Z</time>
      </trkpt>
      <trkpt lat="43.073579985648394" lon="-5.389074990525842">
        <ele>1637.3610000000001</ele>
        <time>2019-09-26T13:42:21Z</time>
      </trkpt>
      <trkpt lat="43.073454005643725" lon="-5.388874998316169">
        <ele>1634.354</ele>
        <time>2019-09-26T13:43:07Z</time>
      </trkpt>
      <trkpt lat="43.073293995112181" lon="-5.388491023331881">
        <ele>1628.0519999999999</ele>
        <time>2019-09-26T13:44:39Z</time>
      </trkpt>
      <trkpt lat="43.073224006220698" lon="-5.388257000595331">
        <ele>1624.076</ele>
        <time>2019-09-26T13:45:04Z</time>
      </trkpt>
      <trkpt lat="43.073087967932224" lon="-5.388095984235406">
        <ele>1619.3889999999999</ele>
        <time>2019-09-26T13:45:33Z</time>
      </trkpt>
      <trkpt lat="43.072874983772635" lon="-5.38793102838099">
        <ele>1611.125</ele>
        <time>2019-09-26T13:46:42Z</time>
      </trkpt>
      <trkpt lat="43.072827039286494" lon="-5.387683007866144">
        <ele>1608.28</ele>
        <time>2019-09-26T13:46:53Z</time>
      </trkpt>
      <trkpt lat="43.072760989889503" lon="-5.387440016493201">
        <ele>1601.7550000000001</ele>
        <time>2019-09-26T13:47:12Z</time>
      </trkpt>
      <trkpt lat="43.072640961036086" lon="-5.387231977656484">
        <ele>1598.989</ele>
        <time>2019-09-26T13:47:32Z</time>
      </trkpt>
      <trkpt lat="43.07251900434494" lon="-5.387039026245475">
        <ele>1596.1410000000001</ele>
        <time>2019-09-26T13:47:49Z</time>
      </trkpt>
      <trkpt lat="43.072516992688179" lon="-5.386774996295571">
        <ele>1593.2929999999999</ele>
        <time>2019-09-26T13:48:06Z</time>
      </trkpt>
      <trkpt lat="43.07258396409452" lon="-5.386532004922628">
        <ele>1591.7629999999999</ele>
        <time>2019-09-26T13:48:30Z</time>
      </trkpt>
      <trkpt lat="43.072598967701197" lon="-5.386270992457867">
        <ele>1589.1949999999999</ele>
        <time>2019-09-26T13:48:46Z</time>
      </trkpt>
      <trkpt lat="43.072422025725245" lon="-5.385848041623831">
        <ele>1585.2909999999999</ele>
        <time>2019-09-26T13:49:23Z</time>
      </trkpt>
      <trkpt lat="43.072313982993364" lon="-5.38563396781683">
        <ele>1583.643</ele>
        <time>2019-09-26T13:49:50Z</time>
      </trkpt>
      <trkpt lat="43.072134023532271" lon="-5.385541012510657">
        <ele>1581.0509999999999</ele>
        <time>2019-09-26T13:51:06Z</time>
      </trkpt>
      <trkpt lat="43.071956997737288" lon="-5.385424001142383">
        <ele>1579.059</ele>
        <time>2019-09-26T13:51:25Z</time>
      </trkpt>
      <trkpt lat="43.071778966113925" lon="-5.385339008644223">
        <ele>1577.5809999999999</ele>
        <time>2019-09-26T13:51:48Z</time>
      </trkpt>
      <trkpt lat="43.0714659858495" lon="-5.385072967037559">
        <ele>1574.7260000000001</ele>
        <time>2019-09-26T13:52:39Z</time>
      </trkpt>
      <trkpt lat="43.071279991418123" lon="-5.38501001894474">
        <ele>1574.1179999999999</ele>
        <time>2019-09-26T13:52:59Z</time>
      </trkpt>
      <trkpt lat="43.071087962016463" lon="-5.385038014501333">
        <ele>1569.8679999999999</ele>
        <time>2019-09-26T13:53:17Z</time>
      </trkpt>
      <trkpt lat="43.070904985070229" lon="-5.384950004518032">
        <ele>1567.0699999999999</ele>
        <time>2019-09-26T13:53:36Z</time>
      </trkpt>
      <trkpt lat="43.070722008123994" lon="-5.384911028668284">
        <ele>1564.8920000000001</ele>
        <time>2019-09-26T13:53:57Z</time>
      </trkpt>
      <trkpt lat="43.070575995370746" lon="-5.384766021743417">
        <ele>1563.461</ele>
        <time>2019-09-26T13:54:17Z</time>
      </trkpt>
      <trkpt lat="43.070441968739033" lon="-5.384588995948434">
        <ele>1560.49</ele>
        <time>2019-09-26T13:54:44Z</time>
      </trkpt>
      <trkpt lat="43.070278018712997" lon="-5.384482964873314">
        <ele>1559.422</ele>
        <time>2019-09-26T13:55:12Z</time>
      </trkpt>
      <trkpt lat="43.07009101845324" lon="-5.384464021772146">
        <ele>1557.6679999999999</ele>
        <time>2019-09-26T13:55:34Z</time>
      </trkpt>
      <trkpt lat="43.06974995881319" lon="-5.384382968768477">
        <ele>1556.0119999999999</ele>
        <time>2019-09-26T13:56:40Z</time>
      </trkpt>
      <trkpt lat="43.069568993523717" lon="-5.384309962391853">
        <ele>1553.181</ele>
        <time>2019-09-26T13:57:04Z</time>
      </trkpt>
      <trkpt lat="43.069395991042256" lon="-5.384207032620907">
        <ele>1551.252</ele>
        <time>2019-09-26T13:57:37Z</time>
      </trkpt>
      <trkpt lat="43.069045040756464" lon="-5.384290013462305">
        <ele>1548.7349999999999</ele>
        <time>2019-09-26T13:58:43Z</time>
      </trkpt>
      <trkpt lat="43.068690989166498" lon="-5.384393027052283">
        <ele>1544.1590000000001</ele>
        <time>2019-09-26T13:59:52Z</time>
      </trkpt>
      <trkpt lat="43.068513041362166" lon="-5.38397803902626">
        <ele>1536.4110000000001</ele>
        <time>2019-09-26T14:00:39Z</time>
      </trkpt>
      <trkpt lat="43.068388989195228" lon="-5.383777040988207">
        <ele>1533.2929999999999</ele>
        <time>2019-09-26T14:01:02Z</time>
      </trkpt>
      <trkpt lat="43.068224033340812" lon="-5.383670004084706">
        <ele>1533.2260000000001</ele>
        <time>2019-09-26T14:01:26Z</time>
      </trkpt>
      <trkpt lat="43.068050025030971" lon="-5.383598003536463">
        <ele>1534.1559999999999</ele>
        <time>2019-09-26T14:01:48Z</time>
      </trkpt>
      <trkpt lat="43.067754982039332" lon="-5.383305978029966">
        <ele>1529.4459999999999</ele>
        <time>2019-09-26T14:03:03Z</time>
      </trkpt>
      <trkpt lat="43.067559013143182" lon="-5.383348977193236">
        <ele>1528.9280000000001</ele>
        <time>2019-09-26T14:03:22Z</time>
      </trkpt>
      <trkpt lat="43.067367989569902" lon="-5.383344031870365">
        <ele>1527.8599999999999</ele>
        <time>2019-09-26T14:03:42Z</time>
      </trkpt>
      <trkpt lat="43.067175038158894" lon="-5.383345037698746">
        <ele>1526.248</ele>
        <time>2019-09-26T14:04:13Z</time>
      </trkpt>
      <trkpt lat="43.066990971565247" lon="-5.383418966084719">
        <ele>1524.328</ele>
        <time>2019-09-26T14:04:37Z</time>
      </trkpt>
      <trkpt lat="43.066843030974269" lon="-5.383601021021605">
        <ele>1524.77</ele>
        <time>2019-09-26T14:05:09Z</time>
      </trkpt>
      <trkpt lat="43.06652300991118" lon="-5.383832026273012">
        <ele>1520.3610000000001</ele>
        <time>2019-09-26T14:06:41Z</time>
      </trkpt>
      <trkpt lat="43.066397029906511" lon="-5.384021960198879">
        <ele>1519.223</ele>
        <time>2019-09-26T14:07:01Z</time>
      </trkpt>
      <trkpt lat="43.06630801409483" lon="-5.384267969056964">
        <ele>1517.1369999999999</ele>
        <time>2019-09-26T14:07:21Z</time>
      </trkpt>
      <trkpt lat="43.06622201576829" lon="-5.384499980136752">
        <ele>1515.777</ele>
        <time>2019-09-26T14:07:42Z</time>
      </trkpt>
      <trkpt lat="43.066193014383316" lon="-5.38475101813674">
        <ele>1514.499</ele>
        <time>2019-09-26T14:08:06Z</time>
      </trkpt>
      <trkpt lat="43.066121013835073" lon="-5.384998032823205">
        <ele>1511.8579999999999</ele>
        <time>2019-09-26T14:08:30Z</time>
      </trkpt>
      <trkpt lat="43.066049013286829" lon="-5.385243035852909">
        <ele>1510.569</ele>
        <time>2019-09-26T14:09:12Z</time>
      </trkpt>
      <trkpt lat="43.065877016633749" lon="-5.385327022522688">
        <ele>1506.451</ele>
        <time>2019-09-26T14:09:50Z</time>
      </trkpt>
      <trkpt lat="43.065696973353624" lon="-5.385426012799144">
        <ele>1505.7639999999999</ele>
        <time>2019-09-26T14:10:12Z</time>
      </trkpt>
      <trkpt lat="43.065526988357306" lon="-5.3855250030756">
        <ele>1504.77</ele>
        <time>2019-09-26T14:10:32Z</time>
      </trkpt>
      <trkpt lat="43.065406959503889" lon="-5.385973015800118">
        <ele>1504.027</ele>
        <time>2019-09-26T14:11:17Z</time>
      </trkpt>
      <trkpt lat="43.065375024452806" lon="-5.386227993294597">
        <ele>1505.4960000000001</ele>
        <time>2019-09-26T14:11:33Z</time>
      </trkpt>
      <trkpt lat="43.065328001976013" lon="-5.386480037122965">
        <ele>1509.1579999999999</ele>
        <time>2019-09-26T14:11:51Z</time>
      </trkpt>
      <trkpt lat="43.06532196700573" lon="-5.386739959940314">
        <ele>1509.146</ele>
        <time>2019-09-26T14:12:15Z</time>
      </trkpt>
      <trkpt lat="43.065352980047464" lon="-5.386997032910585">
        <ele>1508.518</ele>
        <time>2019-09-26T14:12:33Z</time>
      </trkpt>
      <trkpt lat="43.065375024452806" lon="-5.387258967384696">
        <ele>1505.8399999999999</ele>
        <time>2019-09-26T14:13:06Z</time>
      </trkpt>
      <trkpt lat="43.06532297283411" lon="-5.387504976242781">
        <ele>1507.729</ele>
        <time>2019-09-26T14:13:25Z</time>
      </trkpt>
      <trkpt lat="43.065265975892544" lon="-5.387748973444104">
        <ele>1511.4960000000001</ele>
        <time>2019-09-26T14:13:59Z</time>
      </trkpt>
    </trkseg>
  </trk>

</gpx>